LAN8086 SBGR-KLAX
Flight info
| Callsign | LAN8086 |
|---|---|
| Flight time | 11h 38m |
| Altitude | 36000 |
| Route | GERTU UL201 PANAB DCT RODAD DCT ETETO DCT ISOLU DCT AKTOR UL655 ASAPA/N0493F380 UL655 ASOKU/N0484F400 UT152 PPE J93 ASUTA DCT AMMOR OLAAA2 |
| Aircraft | B789/H-SDE1E2E3FGHIJ2J3J4J5M1RWXY/LB1D1 |
Departure
| Time | 2026-05-05 12:46 |
|---|---|
| Airport | São Paulo/Guarulhos–Governor André Franco Montoro International Airport (SBGR) |
Arrival
| Time | 2026-05-06 00:25 |
|---|---|
| Airport | Los Angeles International Airport (KLAX) |
| Time | Latitude | Longitude | Altitude | Speed | Heading |
|---|---|---|---|---|---|
| 2026-05-05 12:35 | -23.42619 | -46.47455 | 2474 ft | 0 kts | 72° |
| 2026-05-05 12:37 | -23.42620 | -46.47457 | 2474 ft | 2 kts | 72° |
| 2026-05-05 12:37 | -23.42627 | -46.47484 | 2474 ft | 4 kts | 75° |
| 2026-05-05 12:37 | -23.42633 | -46.47509 | 2474 ft | 4 kts | 76° |
| 2026-05-05 12:37 | -23.42634 | -46.47534 | 2474 ft | 4 kts | 111° |
| 2026-05-05 12:38 | -23.42621 | -46.47554 | 2474 ft | 4 kts | 143° |
| 2026-05-05 12:38 | -23.42598 | -46.47568 | 2474 ft | 4 kts | 159° |
| 2026-05-05 12:38 | -23.42582 | -46.47574 | 2474 ft | 1 kts | 163° |
| 2026-05-05 12:38 | -23.42580 | -46.47574 | 2474 ft | 0 kts | 163° |
| 2026-05-05 12:41 | -23.42582 | -46.47574 | 2474 ft | 1 kts | 163° |
| 2026-05-05 12:41 | -23.42591 | -46.47571 | 2474 ft | 3 kts | 163° |
| 2026-05-05 12:41 | -23.42629 | -46.47559 | 2474 ft | 9 kts | 163° |
| 2026-05-05 12:42 | -23.42697 | -46.47537 | 2474 ft | 11 kts | 163° |
| 2026-05-05 12:42 | -23.42770 | -46.47513 | 2474 ft | 11 kts | 163° |
| 2026-05-05 12:42 | -23.42848 | -46.47487 | 2474 ft | 12 kts | 163° |
| 2026-05-05 12:42 | -23.42930 | -46.47477 | 2474 ft | 12 kts | 208° |
| 2026-05-05 12:43 | -23.42970 | -46.47554 | 2474 ft | 12 kts | 252° |
| 2026-05-05 12:43 | -23.42996 | -46.47646 | 2474 ft | 13 kts | 253° |
| 2026-05-05 12:43 | -23.43023 | -46.47746 | 2474 ft | 14 kts | 253° |
| 2026-05-05 12:43 | -23.43052 | -46.47852 | 2474 ft | 15 kts | 253° |
| 2026-05-05 12:44 | -23.43082 | -46.47964 | 2474 ft | 16 kts | 253° |
| 2026-05-05 12:44 | -23.43114 | -46.48082 | 2474 ft | 17 kts | 253° |
| 2026-05-05 12:44 | -23.43147 | -46.48205 | 2474 ft | 17 kts | 253° |
| 2026-05-05 12:44 | -23.43181 | -46.48333 | 2474 ft | 18 kts | 250° |
| 2026-05-05 12:45 | -23.43276 | -46.48370 | 2474 ft | 15 kts | 165° |
| 2026-05-05 12:45 | -23.43377 | -46.48336 | 2474 ft | 16 kts | 162° |
| 2026-05-05 12:45 | -23.43423 | -46.48283 | 2474 ft | 7 kts | 81° |
| 2026-05-05 12:45 | -23.43383 | -46.48119 | 2474 ft | 55 kts | 73° |
| 2026-05-05 12:46 | -23.43201 | -46.47448 | 2474 ft | 127 kts | 73° |
| 2026-05-05 12:46 | -23.42891 | -46.46315 | 2474 ft | 181 kts | 73° |
| 2026-05-05 12:46 | -23.42526 | -46.44877 | 2602 ft | 206 kts | 74° |
| 2026-05-05 12:46 | -23.42116 | -46.43385 | 3239 ft | 205 kts | 71° |
| 2026-05-05 12:47 | -23.41662 | -46.41937 | 4073 ft | 199 kts | 71° |
| 2026-05-05 12:47 | -23.41225 | -46.40505 | 4604 ft | 207 kts | 71° |
| 2026-05-05 12:47 | -23.40764 | -46.38951 | 4873 ft | 225 kts | 71° |
| 2026-05-05 12:47 | -23.40256 | -46.37235 | 5147 ft | 245 kts | 70° |
| 2026-05-05 12:48 | -23.39475 | -46.35551 | 5489 ft | 260 kts | 59° |
| 2026-05-05 12:48 | -23.38506 | -46.33798 | 6019 ft | 272 kts | 58° |
| 2026-05-05 12:48 | -23.37498 | -46.32026 | 6669 ft | 279 kts | 57° |
| 2026-05-05 12:48 | -23.36470 | -46.30235 | 7351 ft | 285 kts | 57° |
| 2026-05-05 12:49 | -23.35408 | -46.28387 | 8053 ft | 290 kts | 57° |
| 2026-05-05 12:49 | -23.34328 | -46.26516 | 8751 ft | 295 kts | 57° |
| 2026-05-05 12:49 | -23.33227 | -46.24612 | 9463 ft | 298 kts | 57° |
| 2026-05-05 12:49 | -23.32117 | -46.22696 | 10179 ft | 301 kts | 58° |
| 2026-05-05 12:50 | -23.30988 | -46.20748 | 10773 ft | 310 kts | 58° |
| 2026-05-05 12:50 | -23.29810 | -46.18715 | 11125 ft | 326 kts | 58° |
| 2026-05-05 12:50 | -23.28569 | -46.16575 | 11449 ft | 344 kts | 58° |
| 2026-05-05 12:50 | -23.27172 | -46.14390 | 11762 ft | 362 kts | 49° |
| 2026-05-05 12:51 | -23.25126 | -46.12721 | 12119 ft | 377 kts | 25° |
| 2026-05-05 12:51 | -23.22575 | -46.12009 | 12707 ft | 384 kts | 4° |
| 2026-05-05 12:51 | -23.19917 | -46.12370 | 13344 ft | 388 kts | 342° |
| 2026-05-05 12:51 | -23.17543 | -46.13761 | 13989 ft | 391 kts | 320° |
| 2026-05-05 12:52 | -23.15767 | -46.15982 | 14670 ft | 392 kts | 302° |
| 2026-05-05 12:52 | -23.14376 | -46.18531 | 15399 ft | 394 kts | 298° |
| 2026-05-05 12:52 | -23.13046 | -46.21097 | 16015 ft | 399 kts | 297° |
| 2026-05-05 12:52 | -23.11647 | -46.23788 | 16643 ft | 404 kts | 297° |
| 2026-05-05 12:53 | -23.10239 | -46.26455 | 17274 ft | 409 kts | 298° |
| 2026-05-05 12:53 | -23.08635 | -46.29021 | 17914 ft | 414 kts | 305° |
| 2026-05-05 12:53 | -23.06844 | -46.31433 | 18539 ft | 418 kts | 308° |
| 2026-05-05 12:53 | -23.04962 | -46.33854 | 19123 ft | 422 kts | 308° |
| 2026-05-05 12:54 | -23.01093 | -46.38745 | 20249 ft | 431 kts | 308° |
| 2026-05-05 12:54 | -22.99121 | -46.41228 | 20813 ft | 436 kts | 308° |
| 2026-05-05 12:54 | -22.97132 | -46.43732 | 21382 ft | 439 kts | 308° |
| 2026-05-05 12:55 | -22.95131 | -46.46248 | 21932 ft | 443 kts | 308° |
| 2026-05-05 12:55 | -22.93097 | -46.48803 | 22452 ft | 447 kts | 308° |
| 2026-05-05 12:55 | -22.91058 | -46.51363 | 22961 ft | 451 kts | 308° |
| 2026-05-05 12:55 | -22.88993 | -46.53955 | 23456 ft | 455 kts | 308° |
| 2026-05-05 12:56 | -22.86911 | -46.56567 | 23937 ft | 459 kts | 308° |
| 2026-05-05 12:56 | -22.84838 | -46.59167 | 24434 ft | 462 kts | 308° |
| 2026-05-05 12:56 | -22.82729 | -46.61809 | 24992 ft | 463 kts | 308° |
| 2026-05-05 12:56 | -22.80621 | -46.64448 | 25549 ft | 464 kts | 308° |
| 2026-05-05 12:57 | -22.78503 | -46.67098 | 26073 ft | 466 kts | 308° |
| 2026-05-05 12:57 | -22.76373 | -46.69763 | 26549 ft | 468 kts | 308° |
| 2026-05-05 12:57 | -22.74234 | -46.72439 | 27001 ft | 471 kts | 308° |
| 2026-05-05 12:57 | -22.72086 | -46.75125 | 27461 ft | 473 kts | 307° |
| 2026-05-05 12:58 | -22.69946 | -46.77844 | 27932 ft | 474 kts | 304° |
| 2026-05-05 12:58 | -22.68077 | -46.80773 | 28414 ft | 472 kts | 299° |
| 2026-05-05 12:58 | -22.66366 | -46.83807 | 28879 ft | 472 kts | 297° |
| 2026-05-05 12:58 | -22.64744 | -46.86893 | 29295 ft | 473 kts | 295° |
| 2026-05-05 12:59 | -22.63207 | -46.90049 | 29675 ft | 474 kts | 293° |
| 2026-05-05 12:59 | -22.61711 | -46.93248 | 30043 ft | 476 kts | 292° |
| 2026-05-05 12:59 | -22.60229 | -46.96463 | 30419 ft | 478 kts | 292° |
| 2026-05-05 13:00 | -22.57282 | -47.02944 | 31168 ft | 481 kts | 291° |
| 2026-05-05 13:00 | -22.56037 | -47.06278 | 31600 ft | 477 kts | 286° |
| 2026-05-05 13:01 | -22.53038 | -47.16429 | 33049 ft | 471 kts | 282° |
| 2026-05-05 13:01 | -22.52148 | -47.19834 | 33530 ft | 468 kts | 281° |
| 2026-05-05 13:01 | -22.51286 | -47.23219 | 33994 ft | 466 kts | 281° |
| 2026-05-05 13:01 | -22.50435 | -47.26598 | 34459 ft | 464 kts | 281° |
| 2026-05-05 13:02 | -22.49595 | -47.29952 | 34908 ft | 462 kts | 280° |
| 2026-05-05 13:02 | -22.48758 | -47.33300 | 35354 ft | 460 kts | 280° |
| 2026-05-05 13:02 | -22.47927 | -47.36629 | 35783 ft | 458 kts | 280° |
| 2026-05-05 13:02 | -22.47097 | -47.39951 | 36094 ft | 458 kts | 280° |
| 2026-05-05 13:03 | -22.46265 | -47.43281 | 36246 ft | 459 kts | 280° |
| 2026-05-05 13:03 | -22.45432 | -47.46611 | 36275 ft | 458 kts | 280° |
| 2026-05-05 13:03 | -22.43765 | -47.53250 | 36284 ft | 457 kts | 281° |
| 2026-05-05 13:04 | -22.42572 | -47.56468 | 36254 ft | 467 kts | 292° |
| 2026-05-05 13:04 | -22.40732 | -47.59393 | 36272 ft | 478 kts | 304° |
| 2026-05-05 13:04 | -22.35917 | -47.64471 | 36307 ft | 485 kts | 311° |
| 2026-05-05 13:05 | -22.31048 | -47.69480 | 36283 ft | 481 kts | 309° |
| 2026-05-05 13:05 | -22.26370 | -47.74582 | 36280 ft | 481 kts | 308° |
| 2026-05-05 13:06 | -22.21712 | -47.79777 | 36292 ft | 482 kts | 307° |
| 2026-05-05 13:06 | -22.17065 | -47.84978 | 36278 ft | 480 kts | 307° |
| 2026-05-05 13:07 | -22.12428 | -47.90163 | 36282 ft | 480 kts | 307° |
| 2026-05-05 13:07 | -22.07787 | -47.95347 | 36286 ft | 481 kts | 307° |
| 2026-05-05 13:08 | -22.03140 | -48.00532 | 36273 ft | 480 kts | 307° |
| 2026-05-05 13:08 | -21.98497 | -48.05706 | 36282 ft | 480 kts | 307° |
| 2026-05-05 13:09 | -21.93842 | -48.10888 | 36277 ft | 481 kts | 307° |
| 2026-05-05 13:09 | -21.89192 | -48.16055 | 36263 ft | 481 kts | 307° |
| 2026-05-05 13:10 | -21.84519 | -48.21229 | 36528 ft | 483 kts | 308° |
| 2026-05-05 13:10 | -21.82174 | -48.23816 | 36816 ft | 483 kts | 307° |
| 2026-05-05 13:10 | -21.79824 | -48.26404 | 37150 ft | 482 kts | 307° |
| 2026-05-05 13:11 | -21.77488 | -48.28977 | 37469 ft | 481 kts | 307° |
| 2026-05-05 13:11 | -21.75153 | -48.31550 | 37752 ft | 481 kts | 307° |
| 2026-05-05 13:11 | -21.72814 | -48.34126 | 38033 ft | 481 kts | 307° |
| 2026-05-05 13:11 | -21.71267 | -48.35831 | 38153 ft | 482 kts | 306° |
| 2026-05-05 13:12 | -21.66572 | -48.40999 | 38254 ft | 482 kts | 307° |
| 2026-05-05 13:12 | -21.61916 | -48.46110 | 38255 ft | 475 kts | 306° |
| 2026-05-05 13:13 | -21.57288 | -48.51195 | 38268 ft | 477 kts | 306° |
| 2026-05-05 13:13 | -21.52639 | -48.56300 | 38259 ft | 478 kts | 306° |
| 2026-05-05 13:14 | -21.47979 | -48.61403 | 38252 ft | 478 kts | 306° |
| 2026-05-05 13:14 | -21.43329 | -48.66493 | 38264 ft | 478 kts | 306° |
| 2026-05-05 13:15 | -21.38673 | -48.71586 | 38251 ft | 478 kts | 306° |
| 2026-05-05 13:15 | -21.34009 | -48.76682 | 38251 ft | 478 kts | 306° |
| 2026-05-05 13:16 | -21.29340 | -48.81782 | 38260 ft | 480 kts | 306° |
| 2026-05-05 13:16 | -21.24695 | -48.86847 | 38243 ft | 479 kts | 306° |
| 2026-05-05 13:17 | -21.20017 | -48.91946 | 38247 ft | 479 kts | 306° |
| 2026-05-05 13:17 | -21.15352 | -48.97033 | 38249 ft | 479 kts | 306° |
| 2026-05-05 13:18 | -21.10667 | -49.02139 | 38248 ft | 479 kts | 306° |
| 2026-05-05 13:18 | -21.05999 | -49.07223 | 38268 ft | 479 kts | 306° |
| 2026-05-05 13:19 | -21.01349 | -49.12282 | 38265 ft | 479 kts | 306° |
| 2026-05-05 13:19 | -20.96669 | -49.17367 | 38255 ft | 479 kts | 306° |
| 2026-05-05 13:20 | -20.91993 | -49.22445 | 38268 ft | 479 kts | 306° |
| 2026-05-05 13:20 | -20.87311 | -49.27524 | 38258 ft | 479 kts | 306° |
| 2026-05-05 13:21 | -20.82630 | -49.32596 | 38257 ft | 479 kts | 306° |
| 2026-05-05 13:21 | -20.77936 | -49.37679 | 38267 ft | 480 kts | 306° |
| 2026-05-05 13:22 | -20.73249 | -49.42749 | 38254 ft | 480 kts | 306° |
| 2026-05-05 13:22 | -20.68558 | -49.47818 | 38261 ft | 479 kts | 306° |
| 2026-05-05 13:23 | -20.63864 | -49.52885 | 38265 ft | 480 kts | 306° |
| 2026-05-05 13:23 | -20.59170 | -49.57947 | 38253 ft | 480 kts | 306° |
| 2026-05-05 13:24 | -20.54474 | -49.63007 | 38263 ft | 480 kts | 306° |
| 2026-05-05 13:24 | -20.49807 | -49.68032 | 38259 ft | 480 kts | 306° |
| 2026-05-05 13:25 | -20.45108 | -49.73087 | 38252 ft | 480 kts | 306° |
| 2026-05-05 13:25 | -20.40407 | -49.78139 | 38262 ft | 481 kts | 306° |
| 2026-05-05 13:26 | -20.35676 | -49.83220 | 38254 ft | 482 kts | 306° |
| 2026-05-05 13:26 | -20.30962 | -49.88276 | 38251 ft | 481 kts | 306° |
| 2026-05-05 13:27 | -20.26237 | -49.93339 | 38262 ft | 481 kts | 306° |
| 2026-05-05 13:27 | -20.21518 | -49.98392 | 38249 ft | 482 kts | 306° |
| 2026-05-05 13:28 | -20.16787 | -50.03453 | 38254 ft | 481 kts | 306° |
| 2026-05-05 13:28 | -20.12092 | -50.08471 | 38259 ft | 482 kts | 306° |
| 2026-05-05 13:29 | -20.07362 | -50.13521 | 38246 ft | 482 kts | 306° |
| 2026-05-05 13:29 | -20.02631 | -50.18568 | 38257 ft | 482 kts | 306° |
| 2026-05-05 13:30 | -19.97896 | -50.23614 | 38254 ft | 482 kts | 306° |
| 2026-05-05 13:30 | -19.93157 | -50.28660 | 38246 ft | 482 kts | 306° |
| 2026-05-05 13:31 | -19.88426 | -50.33693 | 38260 ft | 482 kts | 306° |
| 2026-05-05 13:31 | -19.83685 | -50.38732 | 38256 ft | 482 kts | 306° |
| 2026-05-05 13:32 | -19.78944 | -50.43767 | 38250 ft | 482 kts | 306° |
| 2026-05-05 13:32 | -19.74202 | -50.48797 | 38248 ft | 482 kts | 306° |
| 2026-05-05 13:33 | -19.69482 | -50.53849 | 38239 ft | 480 kts | 305° |
| 2026-05-05 13:33 | -19.64973 | -50.59038 | 38249 ft | 478 kts | 303° |
| 2026-05-05 13:34 | -19.60546 | -50.64308 | 38244 ft | 477 kts | 302° |
| 2026-05-05 13:34 | -19.56185 | -50.69622 | 38239 ft | 477 kts | 302° |
| 2026-05-05 13:35 | -19.51883 | -50.74910 | 38251 ft | 477 kts | 302° |
| 2026-05-05 13:35 | -19.47550 | -50.80247 | 38239 ft | 477 kts | 302° |
| 2026-05-05 13:36 | -19.43225 | -50.85572 | 38241 ft | 477 kts | 302° |
| 2026-05-05 13:36 | -19.38889 | -50.90907 | 38249 ft | 477 kts | 302° |
| 2026-05-05 13:37 | -19.34559 | -50.96227 | 38236 ft | 477 kts | 302° |
| 2026-05-05 13:37 | -19.30217 | -51.01555 | 38243 ft | 477 kts | 302° |
| 2026-05-05 13:38 | -19.25868 | -51.06890 | 38246 ft | 479 kts | 302° |
| 2026-05-05 13:38 | -19.21518 | -51.12221 | 38232 ft | 479 kts | 302° |
| 2026-05-05 13:39 | -19.17165 | -51.17553 | 38243 ft | 479 kts | 302° |
| 2026-05-05 13:39 | -19.12814 | -51.22878 | 38240 ft | 479 kts | 302° |
| 2026-05-05 13:40 | -19.08454 | -51.28212 | 38230 ft | 479 kts | 302° |
| 2026-05-05 13:40 | -19.04090 | -51.33543 | 38243 ft | 479 kts | 302° |
| 2026-05-05 13:41 | -18.99728 | -51.38867 | 38233 ft | 479 kts | 303° |
| 2026-05-05 13:41 | -18.95392 | -51.44153 | 38224 ft | 478 kts | 303° |
| 2026-05-05 13:42 | -18.91032 | -51.49460 | 38214 ft | 478 kts | 303° |
| 2026-05-05 13:42 | -18.86673 | -51.54765 | 38201 ft | 478 kts | 303° |
| 2026-05-05 13:43 | -18.82304 | -51.60079 | 38206 ft | 479 kts | 303° |
| 2026-05-05 13:43 | -18.77936 | -51.65387 | 38206 ft | 480 kts | 303° |
| 2026-05-05 13:44 | -18.73559 | -51.70702 | 38196 ft | 480 kts | 303° |
| 2026-05-05 13:44 | -18.69177 | -51.76017 | 38205 ft | 480 kts | 303° |
| 2026-05-05 13:45 | -18.64784 | -51.81341 | 38202 ft | 480 kts | 303° |
| 2026-05-05 13:45 | -18.60396 | -51.86654 | 38192 ft | 480 kts | 303° |
| 2026-05-05 13:46 | -18.56010 | -51.91962 | 38205 ft | 481 kts | 303° |
| 2026-05-05 13:46 | -18.51644 | -51.97241 | 38195 ft | 481 kts | 303° |
| 2026-05-05 13:47 | -18.47255 | -52.02541 | 38191 ft | 481 kts | 303° |
| 2026-05-05 13:47 | -18.42856 | -52.07850 | 38202 ft | 481 kts | 303° |
| 2026-05-05 13:48 | -18.38449 | -52.13162 | 38188 ft | 481 kts | 303° |
| 2026-05-05 13:48 | -18.34049 | -52.18463 | 38192 ft | 481 kts | 303° |
| 2026-05-05 13:49 | -18.29638 | -52.23773 | 38196 ft | 481 kts | 303° |
| 2026-05-05 13:49 | -18.25236 | -52.29067 | 38183 ft | 481 kts | 303° |
| 2026-05-05 13:50 | -18.20818 | -52.34376 | 38192 ft | 481 kts | 303° |
| 2026-05-05 13:50 | -18.16405 | -52.39675 | 38186 ft | 482 kts | 304° |
| 2026-05-05 13:51 | -18.12021 | -52.44935 | 38163 ft | 481 kts | 304° |
| 2026-05-05 13:51 | -18.07599 | -52.50235 | 38151 ft | 481 kts | 304° |
| 2026-05-05 13:52 | -18.03190 | -52.55516 | 38161 ft | 481 kts | 304° |
| 2026-05-05 13:52 | -17.98773 | -52.60803 | 38155 ft | 482 kts | 304° |
| 2026-05-05 13:53 | -17.94348 | -52.66095 | 38150 ft | 482 kts | 304° |
| 2026-05-05 13:53 | -17.89909 | -52.71397 | 38162 ft | 482 kts | 304° |
| 2026-05-05 13:54 | -17.85482 | -52.76681 | 38147 ft | 481 kts | 304° |
| 2026-05-05 13:54 | -17.81056 | -52.81960 | 38152 ft | 481 kts | 304° |
| 2026-05-05 13:55 | -17.76631 | -52.87236 | 38156 ft | 482 kts | 304° |
| 2026-05-05 13:55 | -17.72220 | -52.92488 | 38143 ft | 482 kts | 304° |
| 2026-05-05 13:56 | -17.67791 | -52.97758 | 38154 ft | 482 kts | 305° |
| 2026-05-05 13:56 | -17.63346 | -53.03043 | 38149 ft | 482 kts | 305° |
| 2026-05-05 13:57 | -17.58910 | -53.08313 | 38141 ft | 481 kts | 305° |
| 2026-05-05 13:57 | -17.54478 | -53.13573 | 38154 ft | 482 kts | 305° |
| 2026-05-05 13:58 | -17.50041 | -53.18835 | 38144 ft | 482 kts | 305° |
| 2026-05-05 13:58 | -17.45605 | -53.24093 | 38141 ft | 482 kts | 305° |
| 2026-05-05 13:59 | -17.38952 | -53.31969 | 38144 ft | 481 kts | 305° |
| 2026-05-05 14:00 | -17.33047 | -53.38953 | 38143 ft | 481 kts | 306° |
| 2026-05-05 14:00 | -17.27890 | -53.45045 | 38145 ft | 481 kts | 306° |
| 2026-05-05 14:01 | -17.24194 | -53.49409 | 38135 ft | 481 kts | 306° |
| 2026-05-05 14:01 | -17.19747 | -53.54655 | 38145 ft | 481 kts | 306° |
| 2026-05-05 14:02 | -17.15298 | -53.59899 | 38141 ft | 482 kts | 306° |
| 2026-05-05 14:02 | -17.10877 | -53.65152 | 38133 ft | 481 kts | 305° |
| 2026-05-05 14:03 | -17.06503 | -53.70444 | 38145 ft | 481 kts | 305° |
| 2026-05-05 14:03 | -17.02143 | -53.75766 | 38136 ft | 481 kts | 305° |
| 2026-05-05 14:04 | -16.97799 | -53.81086 | 38133 ft | 481 kts | 305° |
| 2026-05-05 14:04 | -16.93455 | -53.86409 | 38143 ft | 481 kts | 305° |
| 2026-05-05 14:05 | -16.89108 | -53.91730 | 38129 ft | 482 kts | 305° |
| 2026-05-05 14:05 | -16.84761 | -53.97046 | 38134 ft | 481 kts | 305° |
| 2026-05-05 14:06 | -16.80436 | -54.02333 | 38139 ft | 481 kts | 306° |
| 2026-05-05 14:06 | -16.76089 | -54.07643 | 38125 ft | 482 kts | 306° |
| 2026-05-05 14:07 | -16.71728 | -54.12963 | 38134 ft | 482 kts | 306° |
| 2026-05-05 14:07 | -16.67376 | -54.18269 | 38129 ft | 482 kts | 306° |
| 2026-05-05 14:08 | -16.63011 | -54.23587 | 38128 ft | 482 kts | 306° |
| 2026-05-05 14:08 | -16.58656 | -54.28888 | 38137 ft | 482 kts | 306° |
| 2026-05-05 14:09 | -16.54289 | -54.34200 | 38122 ft | 482 kts | 306° |
| 2026-05-05 14:09 | -16.49922 | -54.39509 | 38127 ft | 482 kts | 306° |
| 2026-05-05 14:10 | -16.45552 | -54.44818 | 38129 ft | 483 kts | 306° |
| 2026-05-05 14:10 | -16.41185 | -54.50119 | 38115 ft | 482 kts | 306° |
| 2026-05-05 14:11 | -16.36808 | -54.55428 | 38123 ft | 482 kts | 306° |
| 2026-05-05 14:11 | -16.32436 | -54.60727 | 38107 ft | 482 kts | 306° |
| 2026-05-05 14:12 | -16.28089 | -54.65991 | 38101 ft | 482 kts | 306° |
| 2026-05-05 14:12 | -16.23716 | -54.71284 | 38109 ft | 483 kts | 306° |
| 2026-05-05 14:13 | -16.19333 | -54.76584 | 38096 ft | 483 kts | 306° |
| 2026-05-05 14:13 | -16.14953 | -54.81876 | 38099 ft | 483 kts | 306° |
| 2026-05-05 14:14 | -16.10572 | -54.87166 | 38101 ft | 482 kts | 306° |
| 2026-05-05 14:14 | -16.06194 | -54.92448 | 38089 ft | 482 kts | 306° |
| 2026-05-05 14:15 | -16.01814 | -54.97730 | 38100 ft | 482 kts | 306° |
| 2026-05-05 14:15 | -15.97418 | -55.03028 | 38092 ft | 485 kts | 307° |
| 2026-05-05 14:16 | -15.93008 | -55.08337 | 38087 ft | 485 kts | 307° |
| 2026-05-05 14:16 | -15.88600 | -55.13639 | 38098 ft | 484 kts | 307° |
| 2026-05-05 14:17 | -15.84221 | -55.18902 | 38088 ft | 484 kts | 307° |
| 2026-05-05 14:17 | -15.79813 | -55.24199 | 38084 ft | 485 kts | 307° |
| 2026-05-05 14:18 | -15.75404 | -55.29491 | 38095 ft | 485 kts | 307° |
| 2026-05-05 14:18 | -15.70992 | -55.34783 | 38083 ft | 485 kts | 307° |
| 2026-05-05 14:19 | -15.66573 | -55.40080 | 38086 ft | 485 kts | 307° |
| 2026-05-05 14:19 | -15.62161 | -55.45365 | 38093 ft | 484 kts | 307° |
| 2026-05-05 14:20 | -15.57754 | -55.50639 | 38080 ft | 484 kts | 307° |
| 2026-05-05 14:20 | -15.53342 | -55.55917 | 38091 ft | 484 kts | 307° |
| 2026-05-05 14:21 | -15.48932 | -55.61189 | 38086 ft | 484 kts | 307° |
| 2026-05-05 14:21 | -15.44510 | -55.66470 | 38080 ft | 484 kts | 307° |
| 2026-05-05 14:22 | -15.40095 | -55.71740 | 38092 ft | 484 kts | 307° |
| 2026-05-05 14:22 | -15.35670 | -55.77018 | 38081 ft | 485 kts | 308° |
| 2026-05-05 14:23 | -15.31241 | -55.82297 | 38083 ft | 485 kts | 308° |
| 2026-05-05 14:23 | -15.26849 | -55.87527 | 38092 ft | 485 kts | 308° |
| 2026-05-05 14:24 | -15.22420 | -55.92799 | 38079 ft | 485 kts | 308° |
| 2026-05-05 14:24 | -15.17991 | -55.98066 | 38086 ft | 485 kts | 308° |
| 2026-05-05 14:25 | -15.13554 | -56.03340 | 38090 ft | 485 kts | 308° |
| 2026-05-05 14:25 | -15.09131 | -56.08594 | 38079 ft | 485 kts | 308° |
| 2026-05-05 14:26 | -15.04696 | -56.13857 | 38091 ft | 485 kts | 308° |
| 2026-05-05 14:26 | -15.00260 | -56.19119 | 38083 ft | 485 kts | 308° |
| 2026-05-05 14:27 | -14.95818 | -56.24384 | 38082 ft | 485 kts | 308° |
| 2026-05-05 14:27 | -14.91375 | -56.29647 | 38093 ft | 485 kts | 308° |
| 2026-05-05 14:28 | -14.86930 | -56.34908 | 38080 ft | 485 kts | 308° |
| 2026-05-05 14:28 | -14.82511 | -56.40136 | 38089 ft | 485 kts | 309° |
| 2026-05-05 14:29 | -14.78070 | -56.45385 | 38092 ft | 486 kts | 309° |
| 2026-05-05 14:29 | -14.73618 | -56.50644 | 38081 ft | 485 kts | 309° |
| 2026-05-05 14:30 | -14.69170 | -56.55895 | 38094 ft | 486 kts | 309° |
| 2026-05-05 14:30 | -14.64713 | -56.61152 | 38090 ft | 486 kts | 309° |
| 2026-05-05 14:31 | -14.60262 | -56.66399 | 38085 ft | 486 kts | 309° |
| 2026-05-05 14:31 | -14.55807 | -56.71648 | 38099 ft | 486 kts | 309° |
| 2026-05-05 14:32 | -14.51349 | -56.76898 | 38089 ft | 486 kts | 309° |
| 2026-05-05 14:32 | -14.46885 | -56.82149 | 38092 ft | 486 kts | 309° |
| 2026-05-05 14:33 | -14.42447 | -56.87366 | 38101 ft | 486 kts | 309° |
| 2026-05-05 14:33 | -14.37983 | -56.92611 | 38088 ft | 487 kts | 309° |
| 2026-05-05 14:34 | -14.33514 | -56.97858 | 38096 ft | 486 kts | 309° |
| 2026-05-05 14:34 | -14.29042 | -57.03105 | 38100 ft | 487 kts | 309° |
| 2026-05-05 14:35 | -14.24569 | -57.08352 | 38090 ft | 487 kts | 309° |
| 2026-05-05 14:35 | -14.20096 | -57.13593 | 38102 ft | 487 kts | 309° |
| 2026-05-05 14:36 | -14.15622 | -57.18833 | 38101 ft | 487 kts | 309° |
| 2026-05-05 14:36 | -14.11145 | -57.24073 | 38096 ft | 488 kts | 309° |
| 2026-05-05 14:37 | -14.06655 | -57.29325 | 38109 ft | 488 kts | 309° |
| 2026-05-05 14:37 | -14.02166 | -57.34571 | 38101 ft | 488 kts | 309° |
| 2026-05-05 14:38 | -13.97675 | -57.39818 | 38100 ft | 489 kts | 309° |
| 2026-05-05 14:38 | -13.93165 | -57.45083 | 38114 ft | 490 kts | 309° |
| 2026-05-05 14:39 | -13.88685 | -57.50308 | 38101 ft | 489 kts | 309° |
| 2026-05-05 14:39 | -13.84180 | -57.55561 | 38112 ft | 489 kts | 309° |
| 2026-05-05 14:40 | -13.79665 | -57.60823 | 38114 ft | 490 kts | 309° |
| 2026-05-05 14:40 | -13.75153 | -57.66077 | 38106 ft | 490 kts | 309° |
| 2026-05-05 14:41 | -13.70648 | -57.71320 | 38120 ft | 490 kts | 309° |
| 2026-05-05 14:41 | -13.66132 | -57.76571 | 38115 ft | 490 kts | 309° |
| 2026-05-05 14:42 | -13.61622 | -57.81813 | 38113 ft | 489 kts | 309° |
| 2026-05-05 14:42 | -13.57108 | -57.87056 | 38126 ft | 490 kts | 309° |
| 2026-05-05 14:43 | -13.52593 | -57.92296 | 38117 ft | 490 kts | 309° |
| 2026-05-05 14:43 | -13.48075 | -57.97537 | 38122 ft | 490 kts | 309° |
| 2026-05-05 14:44 | -13.43561 | -58.02771 | 38131 ft | 490 kts | 309° |
| 2026-05-05 14:44 | -13.39029 | -58.08018 | 38119 ft | 490 kts | 310° |
| 2026-05-05 14:45 | -13.34513 | -58.13245 | 38130 ft | 490 kts | 310° |
| 2026-05-05 14:45 | -13.29984 | -58.18486 | 38134 ft | 490 kts | 310° |
| 2026-05-05 14:46 | -13.25453 | -58.23727 | 38124 ft | 490 kts | 310° |
| 2026-05-05 14:46 | -13.20962 | -58.28919 | 38138 ft | 490 kts | 310° |
| 2026-05-05 14:47 | -13.16435 | -58.34148 | 38136 ft | 490 kts | 310° |
| 2026-05-05 14:47 | -13.11907 | -58.39375 | 38131 ft | 490 kts | 310° |
| 2026-05-05 14:48 | -13.07372 | -58.44607 | 38145 ft | 490 kts | 310° |
| 2026-05-05 14:48 | -13.02844 | -58.49828 | 38138 ft | 490 kts | 310° |
| 2026-05-05 14:49 | -12.99045 | -58.54206 | 38137 ft | 490 kts | 310° |
| 2026-05-05 14:49 | -12.94511 | -58.59429 | 38151 ft | 490 kts | 310° |
| 2026-05-05 14:50 | -12.90006 | -58.64614 | 38141 ft | 490 kts | 310° |
| 2026-05-05 14:50 | -12.85475 | -58.69827 | 38146 ft | 490 kts | 310° |
| 2026-05-05 14:51 | -12.80942 | -58.75038 | 38155 ft | 490 kts | 310° |
| 2026-05-05 14:51 | -12.76401 | -58.80256 | 38144 ft | 490 kts | 310° |
| 2026-05-05 14:52 | -12.71862 | -58.85469 | 38154 ft | 490 kts | 310° |
| 2026-05-05 14:52 | -12.67320 | -58.90683 | 38164 ft | 490 kts | 310° |
| 2026-05-05 14:53 | -12.62777 | -58.95893 | 38152 ft | 490 kts | 310° |
| 2026-05-05 14:53 | -12.58240 | -59.01091 | 38160 ft | 490 kts | 310° |
| 2026-05-05 14:54 | -12.53692 | -59.06300 | 38165 ft | 490 kts | 310° |
| 2026-05-05 14:54 | -12.49155 | -59.11493 | 38154 ft | 490 kts | 310° |
| 2026-05-05 14:55 | -12.44609 | -59.16696 | 38166 ft | 490 kts | 310° |
| 2026-05-05 14:55 | -12.40095 | -59.21859 | 38163 ft | 490 kts | 310° |
| 2026-05-05 14:56 | -12.35555 | -59.27049 | 38157 ft | 489 kts | 310° |
| 2026-05-05 14:56 | -12.31012 | -59.32239 | 38170 ft | 489 kts | 310° |
| 2026-05-05 14:57 | -12.26475 | -59.37423 | 38159 ft | 489 kts | 310° |
| 2026-05-05 14:57 | -12.21936 | -59.42606 | 38164 ft | 489 kts | 310° |
| 2026-05-05 14:58 | -12.17398 | -59.47784 | 38171 ft | 489 kts | 310° |
| 2026-05-05 14:58 | -12.12846 | -59.52974 | 38157 ft | 489 kts | 310° |
| 2026-05-05 14:59 | -12.08310 | -59.58141 | 38168 ft | 489 kts | 310° |
| 2026-05-05 14:59 | -12.03792 | -59.63285 | 38166 ft | 489 kts | 310° |
| 2026-05-05 15:00 | -11.99989 | -59.67613 | 38157 ft | 489 kts | 310° |
| 2026-05-05 15:00 | -11.94715 | -59.73612 | 38171 ft | 489 kts | 310° |
| 2026-05-05 15:01 | -11.90166 | -59.78784 | 38162 ft | 489 kts | 310° |
| 2026-05-05 15:01 | -11.85624 | -59.83944 | 38160 ft | 488 kts | 310° |
| 2026-05-05 15:02 | -11.81084 | -59.89100 | 38170 ft | 489 kts | 310° |
| 2026-05-05 15:02 | -11.76638 | -59.94354 | 38157 ft | 488 kts | 308° |
| 2026-05-05 15:03 | -11.72283 | -59.99671 | 38162 ft | 488 kts | 308° |
| 2026-05-05 15:03 | -11.67968 | -60.05008 | 38167 ft | 488 kts | 308° |
| 2026-05-05 15:04 | -11.63684 | -60.10324 | 38154 ft | 488 kts | 308° |
| 2026-05-05 15:04 | -11.59372 | -60.15680 | 38163 ft | 488 kts | 308° |
| 2026-05-05 15:05 | -11.52909 | -60.23702 | 38148 ft | 488 kts | 308° |
| 2026-05-05 15:06 | -11.48600 | -60.29046 | 38156 ft | 488 kts | 308° |
| 2026-05-05 15:06 | -11.44289 | -60.34392 | 38155 ft | 488 kts | 308° |
| 2026-05-05 15:07 | -11.39978 | -60.39734 | 38143 ft | 488 kts | 308° |
| 2026-05-05 15:07 | -11.35664 | -60.45079 | 38154 ft | 488 kts | 308° |
| 2026-05-05 15:08 | -11.31352 | -60.50416 | 38146 ft | 488 kts | 308° |
| 2026-05-05 15:08 | -11.27042 | -60.55749 | 38140 ft | 487 kts | 308° |
| 2026-05-05 15:09 | -11.22733 | -60.61077 | 38150 ft | 488 kts | 308° |
| 2026-05-05 15:09 | -11.18443 | -60.66380 | 38137 ft | 488 kts | 308° |
| 2026-05-05 15:10 | -11.14122 | -60.71717 | 38137 ft | 487 kts | 308° |
| 2026-05-05 15:10 | -11.09808 | -60.77042 | 38143 ft | 488 kts | 308° |
| 2026-05-05 15:11 | -11.05489 | -60.82372 | 38129 ft | 487 kts | 308° |
| 2026-05-05 15:11 | -11.01176 | -60.87692 | 38135 ft | 487 kts | 308° |
| 2026-05-05 15:12 | -10.96859 | -60.93014 | 38134 ft | 488 kts | 308° |
| 2026-05-05 15:12 | -10.92540 | -60.98336 | 38122 ft | 487 kts | 308° |
| 2026-05-05 15:13 | -10.88245 | -61.03626 | 38133 ft | 488 kts | 309° |
| 2026-05-05 15:13 | -10.83917 | -61.08952 | 38124 ft | 487 kts | 309° |
| 2026-05-05 15:14 | -10.79600 | -61.14263 | 38117 ft | 487 kts | 309° |
| 2026-05-05 15:14 | -10.75285 | -61.19570 | 38127 ft | 487 kts | 309° |
| 2026-05-05 15:15 | -10.70961 | -61.24885 | 38115 ft | 487 kts | 309° |
| 2026-05-05 15:15 | -10.66643 | -61.30190 | 38113 ft | 487 kts | 309° |
| 2026-05-05 15:16 | -10.62320 | -61.35498 | 38121 ft | 487 kts | 309° |
| 2026-05-05 15:16 | -10.57998 | -61.40803 | 38106 ft | 487 kts | 309° |
| 2026-05-05 15:17 | -10.53674 | -61.46107 | 38110 ft | 486 kts | 309° |
| 2026-05-05 15:17 | -10.49382 | -61.51369 | 38111 ft | 486 kts | 309° |
| 2026-05-05 15:18 | -10.45060 | -61.56664 | 38098 ft | 487 kts | 309° |
| 2026-05-05 15:18 | -10.40716 | -61.61984 | 38102 ft | 492 kts | 309° |
| 2026-05-05 15:19 | -10.36320 | -61.67368 | 38105 ft | 496 kts | 309° |
| 2026-05-05 15:19 | -10.31920 | -61.72753 | 38087 ft | 494 kts | 309° |
| 2026-05-05 15:20 | -10.27524 | -61.78128 | 38098 ft | 495 kts | 309° |
| 2026-05-05 15:20 | -10.23127 | -61.83504 | 38091 ft | 496 kts | 309° |
| 2026-05-05 15:21 | -10.18725 | -61.88887 | 38083 ft | 496 kts | 309° |
| 2026-05-05 15:21 | -10.14315 | -61.94274 | 38093 ft | 496 kts | 309° |
| 2026-05-05 15:22 | -10.09908 | -61.99655 | 38083 ft | 496 kts | 309° |
| 2026-05-05 15:22 | -10.05501 | -62.05032 | 38078 ft | 496 kts | 309° |
| 2026-05-05 15:23 | -10.01089 | -62.10413 | 38089 ft | 496 kts | 309° |
| 2026-05-05 15:23 | -9.96673 | -62.15792 | 38075 ft | 496 kts | 309° |
| 2026-05-05 15:24 | -9.92285 | -62.21135 | 38077 ft | 496 kts | 309° |
| 2026-05-05 15:24 | -9.87868 | -62.26513 | 38080 ft | 496 kts | 309° |
| 2026-05-05 15:25 | -9.83449 | -62.31894 | 38067 ft | 495 kts | 309° |
| 2026-05-05 15:25 | -9.79043 | -62.37259 | 38074 ft | 495 kts | 309° |
| 2026-05-05 15:26 | -9.74633 | -62.42625 | 38073 ft | 496 kts | 309° |
| 2026-05-05 15:26 | -9.70212 | -62.48000 | 38062 ft | 495 kts | 309° |
| 2026-05-05 15:27 | -9.65805 | -62.53354 | 38073 ft | 494 kts | 309° |
| 2026-05-05 15:27 | -9.61390 | -62.58714 | 38066 ft | 495 kts | 309° |
| 2026-05-05 15:28 | -9.56978 | -62.64070 | 38060 ft | 495 kts | 309° |
| 2026-05-05 15:28 | -9.52567 | -62.69423 | 38071 ft | 494 kts | 309° |
| 2026-05-05 15:29 | -9.48159 | -62.74769 | 38058 ft | 494 kts | 309° |
| 2026-05-05 15:29 | -9.43752 | -62.80113 | 38063 ft | 494 kts | 309° |
| 2026-05-05 15:30 | -9.39353 | -62.85447 | 38066 ft | 495 kts | 309° |
| 2026-05-05 15:30 | -9.34942 | -62.90795 | 38052 ft | 493 kts | 309° |
| 2026-05-05 15:31 | -9.30570 | -62.96090 | 38064 ft | 494 kts | 309° |
| 2026-05-05 15:31 | -9.26168 | -63.01418 | 38060 ft | 494 kts | 310° |
| 2026-05-05 15:32 | -9.21758 | -63.06754 | 38052 ft | 493 kts | 310° |
| 2026-05-05 15:32 | -9.17357 | -63.12076 | 38063 ft | 494 kts | 310° |
| 2026-05-05 15:33 | -9.12936 | -63.17420 | 38056 ft | 495 kts | 310° |
| 2026-05-05 15:33 | -9.08520 | -63.22756 | 38051 ft | 494 kts | 310° |
| 2026-05-05 15:34 | -9.04103 | -63.28091 | 38063 ft | 495 kts | 310° |
| 2026-05-05 15:34 | -8.99677 | -63.33429 | 38051 ft | 495 kts | 310° |
| 2026-05-05 15:35 | -8.95260 | -63.38755 | 38055 ft | 494 kts | 310° |
| 2026-05-05 15:35 | -8.90827 | -63.44082 | 38061 ft | 494 kts | 311° |
| 2026-05-05 15:36 | -8.86293 | -63.49244 | 38047 ft | 494 kts | 312° |
| 2026-05-05 15:36 | -8.81658 | -63.54381 | 38057 ft | 494 kts | 313° |
| 2026-05-05 15:37 | -8.77760 | -63.58673 | 38059 ft | 494 kts | 313° |
| 2026-05-05 15:37 | -8.73134 | -63.63755 | 38047 ft | 494 kts | 313° |
| 2026-05-05 15:38 | -8.68479 | -63.68863 | 38058 ft | 494 kts | 313° |
| 2026-05-05 15:38 | -8.63823 | -63.73971 | 38055 ft | 494 kts | 313° |
| 2026-05-05 15:39 | -8.59163 | -63.79081 | 38047 ft | 494 kts | 313° |
| 2026-05-05 15:39 | -8.54501 | -63.84191 | 38060 ft | 494 kts | 313° |
| 2026-05-05 15:40 | -8.49836 | -63.89302 | 38052 ft | 495 kts | 313° |
| 2026-05-05 15:40 | -8.45166 | -63.94416 | 38049 ft | 494 kts | 313° |
| 2026-05-05 15:41 | -8.40535 | -63.99486 | 38060 ft | 495 kts | 313° |
| 2026-05-05 15:41 | -8.35857 | -64.04607 | 38049 ft | 495 kts | 313° |
| 2026-05-05 15:42 | -8.31181 | -64.09722 | 38052 ft | 495 kts | 313° |
| 2026-05-05 15:42 | -8.26506 | -64.14835 | 38059 ft | 495 kts | 313° |
| 2026-05-05 15:43 | -8.21837 | -64.19943 | 38046 ft | 495 kts | 313° |
| 2026-05-05 15:43 | -8.17168 | -64.25047 | 38056 ft | 495 kts | 313° |
| 2026-05-05 15:44 | -8.12481 | -64.30163 | 38055 ft | 495 kts | 313° |
| 2026-05-05 15:44 | -8.07804 | -64.35270 | 38046 ft | 495 kts | 313° |
| 2026-05-05 15:45 | -8.03130 | -64.40372 | 38059 ft | 495 kts | 313° |
| 2026-05-05 15:45 | -7.98453 | -64.45476 | 38050 ft | 495 kts | 313° |
| 2026-05-05 15:46 | -7.93807 | -64.50543 | 38049 ft | 495 kts | 313° |
| 2026-05-05 15:46 | -7.89133 | -64.55640 | 38059 ft | 495 kts | 313° |
| 2026-05-05 15:47 | -7.84458 | -64.60736 | 38046 ft | 495 kts | 313° |
| 2026-05-05 15:47 | -7.79781 | -64.65833 | 38053 ft | 495 kts | 313° |
| 2026-05-05 15:48 | -7.75101 | -64.70931 | 38054 ft | 495 kts | 313° |
| 2026-05-05 15:48 | -7.70422 | -64.76026 | 38042 ft | 494 kts | 313° |
| 2026-05-05 15:49 | -7.65749 | -64.81112 | 38054 ft | 494 kts | 313° |
| 2026-05-05 15:49 | -7.61076 | -64.86197 | 38048 ft | 494 kts | 313° |
| 2026-05-05 15:50 | -7.56405 | -64.91279 | 38043 ft | 494 kts | 313° |
| 2026-05-05 15:50 | -7.51733 | -64.96359 | 38055 ft | 494 kts | 313° |
| 2026-05-05 15:51 | -7.47059 | -65.01440 | 38043 ft | 494 kts | 313° |
| 2026-05-05 15:51 | -7.42390 | -65.06513 | 38046 ft | 494 kts | 313° |
| 2026-05-05 15:52 | -7.37724 | -65.11583 | 38052 ft | 494 kts | 313° |
| 2026-05-05 15:52 | -7.33054 | -65.16653 | 38039 ft | 493 kts | 313° |
| 2026-05-05 15:53 | -7.28382 | -65.21726 | 38048 ft | 493 kts | 313° |
| 2026-05-05 15:53 | -7.23750 | -65.26752 | 38047 ft | 493 kts | 313° |
| 2026-05-05 15:54 | -7.19074 | -65.31829 | 38037 ft | 493 kts | 313° |
| 2026-05-05 15:54 | -7.14415 | -65.36885 | 38050 ft | 493 kts | 313° |
| 2026-05-05 15:55 | -7.09739 | -65.41954 | 38041 ft | 493 kts | 313° |
| 2026-05-05 15:55 | -7.05073 | -65.47011 | 38038 ft | 493 kts | 314° |
| 2026-05-05 15:56 | -7.00393 | -65.52076 | 38049 ft | 493 kts | 314° |
| 2026-05-05 15:56 | -6.95721 | -65.57133 | 38036 ft | 493 kts | 314° |
| 2026-05-05 15:57 | -6.91046 | -65.62194 | 38041 ft | 493 kts | 314° |
| 2026-05-05 15:57 | -6.86375 | -65.67250 | 38046 ft | 494 kts | 314° |
| 2026-05-05 15:58 | -6.81693 | -65.72317 | 38033 ft | 493 kts | 314° |
| 2026-05-05 15:58 | -6.77023 | -65.77369 | 38043 ft | 493 kts | 314° |
| 2026-05-05 15:59 | -6.72342 | -65.82432 | 38040 ft | 494 kts | 314° |
| 2026-05-05 15:59 | -6.67701 | -65.87448 | 38032 ft | 493 kts | 313° |
| 2026-05-05 16:00 | -6.63027 | -65.92503 | 38044 ft | 493 kts | 313° |
| 2026-05-05 16:00 | -6.58351 | -65.97558 | 38034 ft | 493 kts | 313° |
| 2026-05-05 16:01 | -6.53675 | -66.02610 | 38034 ft | 493 kts | 314° |
| 2026-05-05 16:01 | -6.49005 | -66.07652 | 38042 ft | 494 kts | 314° |
| 2026-05-05 16:02 | -6.44313 | -66.12716 | 38029 ft | 493 kts | 314° |
| 2026-05-05 16:02 | -6.39642 | -66.17757 | 38036 ft | 493 kts | 313° |
| 2026-05-05 16:03 | -6.34969 | -66.22801 | 38038 ft | 493 kts | 313° |
| 2026-05-05 16:03 | -6.30328 | -66.27807 | 38027 ft | 493 kts | 313° |
| 2026-05-05 16:04 | -6.25652 | -66.32849 | 38038 ft | 493 kts | 313° |
| 2026-05-05 16:04 | -6.20980 | -66.37885 | 38032 ft | 493 kts | 314° |
| 2026-05-05 16:05 | -6.16289 | -66.42938 | 38028 ft | 494 kts | 314° |
| 2026-05-05 16:05 | -6.11608 | -66.47979 | 38039 ft | 494 kts | 314° |
| 2026-05-05 16:06 | -6.06927 | -66.53020 | 38026 ft | 493 kts | 314° |
| 2026-05-05 16:06 | -6.02242 | -66.58065 | 38030 ft | 493 kts | 314° |
| 2026-05-05 16:07 | -5.97557 | -66.63109 | 38035 ft | 494 kts | 314° |
| 2026-05-05 16:07 | -5.92874 | -66.68153 | 38022 ft | 494 kts | 314° |
| 2026-05-05 16:08 | -5.88182 | -66.73204 | 38032 ft | 494 kts | 314° |
| 2026-05-05 16:08 | -5.83483 | -66.78257 | 38031 ft | 495 kts | 314° |
| 2026-05-05 16:09 | -5.78781 | -66.83311 | 38020 ft | 494 kts | 314° |
| 2026-05-05 16:09 | -5.74087 | -66.88357 | 38032 ft | 495 kts | 314° |
| 2026-05-05 16:10 | -5.69384 | -66.93412 | 38026 ft | 496 kts | 314° |
| 2026-05-05 16:10 | -5.64708 | -66.98435 | 38020 ft | 495 kts | 314° |
| 2026-05-05 16:11 | -5.60003 | -67.03489 | 38032 ft | 495 kts | 314° |
| 2026-05-05 16:12 | -5.50573 | -67.13618 | 38023 ft | 496 kts | 314° |
| 2026-05-05 16:13 | -5.38814 | -67.26238 | 38017 ft | 496 kts | 314° |
| 2026-05-05 16:13 | -5.34104 | -67.31290 | 38028 ft | 496 kts | 314° |
| 2026-05-05 16:14 | -5.24662 | -67.41416 | 38039 ft | 497 kts | 314° |
| 2026-05-05 16:15 | -5.15211 | -67.51547 | 38040 ft | 497 kts | 314° |
| 2026-05-05 16:16 | -5.05769 | -67.61661 | 38051 ft | 497 kts | 314° |
| 2026-05-05 16:17 | -4.98679 | -67.69250 | 38042 ft | 497 kts | 314° |
| 2026-05-05 16:18 | -4.91586 | -67.76850 | 38038 ft | 497 kts | 314° |
| 2026-05-05 16:19 | -4.84534 | -67.84399 | 38013 ft | 497 kts | 314° |
| 2026-05-05 16:19 | -4.77440 | -67.91988 | 38027 ft | 497 kts | 314° |
| 2026-05-05 16:20 | -4.67985 | -68.02100 | 38023 ft | 497 kts | 314° |
| 2026-05-05 16:22 | -4.56165 | -68.14729 | 38020 ft | 497 kts | 314° |
| 2026-05-05 16:23 | -4.46707 | -68.24840 | 38015 ft | 497 kts | 314° |
| 2026-05-05 16:23 | -4.39615 | -68.32416 | 38029 ft | 497 kts | 314° |
| 2026-05-05 16:24 | -4.34884 | -68.37468 | 38018 ft | 497 kts | 314° |
| 2026-05-05 16:25 | -4.28584 | -68.44194 | 38027 ft | 497 kts | 314° |
| 2026-05-05 16:25 | -4.20721 | -68.52586 | 38016 ft | 497 kts | 314° |
| 2026-05-05 16:26 | -4.12057 | -68.61825 | 38018 ft | 498 kts | 314° |
| 2026-05-05 16:27 | -4.07317 | -68.66880 | 38004 ft | 497 kts | 314° |
| 2026-05-05 16:27 | -4.02576 | -68.71923 | 38017 ft | 497 kts | 315° |
| 2026-05-05 16:28 | -3.97716 | -68.76856 | 38012 ft | 497 kts | 316° |
| 2026-05-05 16:28 | -3.92815 | -68.81724 | 38007 ft | 496 kts | 317° |
| 2026-05-05 16:29 | -3.87904 | -68.86583 | 38020 ft | 496 kts | 317° |
| 2026-05-05 16:29 | -3.82992 | -68.91443 | 38012 ft | 497 kts | 317° |
| 2026-05-05 16:30 | -3.80522 | -68.93886 | 38147 ft | 499 kts | 317° |
| 2026-05-05 16:30 | -3.78054 | -68.96330 | 38469 ft | 498 kts | 317° |
| 2026-05-05 16:30 | -3.75593 | -68.98767 | 38832 ft | 497 kts | 317° |
| 2026-05-05 16:30 | -3.73151 | -69.01189 | 39199 ft | 495 kts | 317° |
| 2026-05-05 16:31 | -3.70708 | -69.03611 | 39599 ft | 492 kts | 317° |
| 2026-05-05 16:31 | -3.68283 | -69.06013 | 39851 ft | 491 kts | 317° |
| 2026-05-05 16:31 | -3.65847 | -69.08423 | 39987 ft | 492 kts | 317° |
| 2026-05-05 16:31 | -3.63420 | -69.10825 | 40001 ft | 487 kts | 317° |
| 2026-05-05 16:32 | -3.58638 | -69.15556 | 40008 ft | 481 kts | 317° |
| 2026-05-05 16:32 | -3.53899 | -69.20242 | 40029 ft | 483 kts | 317° |
| 2026-05-05 16:33 | -3.49119 | -69.24967 | 40024 ft | 483 kts | 317° |
| 2026-05-05 16:33 | -3.44341 | -69.29692 | 40018 ft | 482 kts | 317° |
| 2026-05-05 16:34 | -3.39563 | -69.34415 | 40031 ft | 483 kts | 317° |
| 2026-05-05 16:34 | -3.34780 | -69.39142 | 40020 ft | 483 kts | 317° |
| 2026-05-05 16:35 | -3.30031 | -69.43836 | 40021 ft | 482 kts | 317° |
| 2026-05-05 16:35 | -3.25260 | -69.48550 | 40030 ft | 483 kts | 317° |
| 2026-05-05 16:36 | -3.20473 | -69.53278 | 40017 ft | 483 kts | 317° |
| 2026-05-05 16:36 | -3.15696 | -69.57997 | 40025 ft | 483 kts | 317° |
| 2026-05-05 16:37 | -3.10914 | -69.62719 | 40027 ft | 483 kts | 317° |
| 2026-05-05 16:37 | -3.06127 | -69.67447 | 40016 ft | 483 kts | 317° |
| 2026-05-05 16:38 | -3.01353 | -69.72170 | 40020 ft | 483 kts | 316° |
| 2026-05-05 16:38 | -2.96579 | -69.76910 | 40013 ft | 483 kts | 316° |
| 2026-05-05 16:39 | -2.91810 | -69.81649 | 40014 ft | 483 kts | 316° |
| 2026-05-05 16:39 | -2.87043 | -69.86386 | 40022 ft | 483 kts | 316° |
| 2026-05-05 16:40 | -2.82302 | -69.91096 | 40009 ft | 483 kts | 316° |
| 2026-05-05 16:40 | -2.77537 | -69.95828 | 40017 ft | 483 kts | 316° |
| 2026-05-05 16:41 | -2.72794 | -70.00588 | 40031 ft | 483 kts | 315° |
| 2026-05-05 16:41 | -2.68183 | -70.05484 | 40017 ft | 483 kts | 314° |
| 2026-05-05 16:42 | -2.63624 | -70.10434 | 40027 ft | 483 kts | 314° |
| 2026-05-05 16:42 | -2.59088 | -70.15391 | 40029 ft | 484 kts | 314° |
| 2026-05-05 16:43 | -2.54553 | -70.20357 | 40018 ft | 484 kts | 313° |
| 2026-05-05 16:43 | -2.50016 | -70.25326 | 40031 ft | 484 kts | 313° |
| 2026-05-05 16:44 | -2.45477 | -70.30296 | 40025 ft | 484 kts | 313° |
| 2026-05-05 16:44 | -2.40939 | -70.35266 | 40021 ft | 484 kts | 313° |
| 2026-05-05 16:45 | -2.36398 | -70.40238 | 40033 ft | 484 kts | 313° |
| 2026-05-05 16:45 | -2.31863 | -70.45202 | 40021 ft | 484 kts | 313° |
| 2026-05-05 16:46 | -2.27352 | -70.50140 | 40026 ft | 484 kts | 314° |
| 2026-05-05 16:46 | -2.22813 | -70.55109 | 40031 ft | 483 kts | 313° |
| 2026-05-05 16:47 | -2.18283 | -70.60070 | 40019 ft | 483 kts | 313° |
| 2026-05-05 16:47 | -2.13740 | -70.65041 | 40030 ft | 483 kts | 313° |
| 2026-05-05 16:48 | -2.09209 | -70.69998 | 40027 ft | 483 kts | 314° |
| 2026-05-05 16:48 | -2.04674 | -70.74959 | 40020 ft | 483 kts | 313° |
| 2026-05-05 16:49 | -2.00136 | -70.79923 | 40033 ft | 483 kts | 313° |
| 2026-05-05 16:49 | -1.95601 | -70.84887 | 40024 ft | 483 kts | 313° |
| 2026-05-05 16:50 | -1.91074 | -70.89854 | 40023 ft | 483 kts | 313° |
| 2026-05-05 16:50 | -1.86546 | -70.94824 | 40034 ft | 483 kts | 313° |
| 2026-05-05 16:51 | -1.82017 | -70.99794 | 40021 ft | 483 kts | 313° |
| 2026-05-05 16:51 | -1.77498 | -71.04754 | 40028 ft | 483 kts | 313° |
| 2026-05-05 16:52 | -1.72998 | -71.09692 | 40032 ft | 483 kts | 313° |
| 2026-05-05 16:52 | -1.68470 | -71.14659 | 40020 ft | 483 kts | 313° |
| 2026-05-05 16:53 | -1.63954 | -71.19614 | 40033 ft | 483 kts | 313° |
| 2026-05-05 16:53 | -1.59430 | -71.24576 | 40026 ft | 483 kts | 313° |
| 2026-05-05 16:54 | -1.54910 | -71.29535 | 40023 ft | 483 kts | 313° |
| 2026-05-05 16:54 | -1.50379 | -71.34505 | 40035 ft | 483 kts | 313° |
| 2026-05-05 16:55 | -1.45860 | -71.39461 | 40023 ft | 483 kts | 313° |
| 2026-05-05 16:55 | -1.41337 | -71.44422 | 40027 ft | 482 kts | 313° |
| 2026-05-05 16:56 | -1.36820 | -71.49376 | 40035 ft | 482 kts | 313° |
| 2026-05-05 16:56 | -1.32299 | -71.54333 | 40022 ft | 482 kts | 313° |
| 2026-05-05 16:57 | -1.27810 | -71.59255 | 40031 ft | 482 kts | 313° |
| 2026-05-05 16:57 | -1.23290 | -71.64211 | 40032 ft | 482 kts | 313° |
| 2026-05-05 16:58 | -1.18774 | -71.69163 | 40022 ft | 482 kts | 313° |
| 2026-05-05 16:58 | -1.14248 | -71.74125 | 40035 ft | 482 kts | 313° |
| 2026-05-05 16:59 | -1.09733 | -71.79075 | 40028 ft | 482 kts | 313° |
| 2026-05-05 16:59 | -1.05152 | -71.84096 | 40025 ft | 482 kts | 313° |
| 2026-05-05 17:00 | -1.01769 | -71.87805 | 40035 ft | 482 kts | 313° |
| 2026-05-05 17:00 | -0.97247 | -71.92762 | 40028 ft | 482 kts | 313° |
| 2026-05-05 17:01 | -0.92731 | -71.97712 | 40026 ft | 482 kts | 313° |
| 2026-05-05 17:01 | -0.88236 | -72.02638 | 40037 ft | 482 kts | 313° |
| 2026-05-05 17:02 | -0.83716 | -72.07593 | 40024 ft | 482 kts | 313° |
| 2026-05-05 17:02 | -0.79202 | -72.12540 | 40032 ft | 482 kts | 313° |
| 2026-05-05 17:03 | -0.74683 | -72.17492 | 40036 ft | 482 kts | 313° |
| 2026-05-05 17:03 | -0.70162 | -72.22447 | 40024 ft | 482 kts | 313° |
| 2026-05-05 17:04 | -0.65647 | -72.27394 | 40036 ft | 482 kts | 313° |
| 2026-05-05 17:04 | -0.61129 | -72.32346 | 40033 ft | 482 kts | 313° |
| 2026-05-05 17:05 | -0.56609 | -72.37299 | 40025 ft | 482 kts | 313° |
| 2026-05-05 17:05 | -0.52120 | -72.42218 | 40039 ft | 482 kts | 313° |
| 2026-05-05 17:06 | -0.47604 | -72.47166 | 40030 ft | 482 kts | 313° |
| 2026-05-05 17:06 | -0.43085 | -72.52117 | 40030 ft | 482 kts | 313° |
| 2026-05-05 17:07 | -0.38570 | -72.57064 | 40040 ft | 482 kts | 313° |
| 2026-05-05 17:07 | -0.34043 | -72.62026 | 40028 ft | 482 kts | 313° |
| 2026-05-05 17:08 | -0.29526 | -72.66974 | 40042 ft | 482 kts | 313° |
| 2026-05-05 17:08 | -0.25003 | -72.71930 | 40056 ft | 482 kts | 313° |
| 2026-05-05 17:09 | -0.20484 | -72.76882 | 40047 ft | 482 kts | 313° |
| 2026-05-05 17:09 | -0.15961 | -72.81837 | 40049 ft | 482 kts | 313° |
| 2026-05-05 17:10 | -0.12206 | -72.85951 | 40059 ft | 482 kts | 313° |
| 2026-05-05 17:10 | -0.07678 | -72.90907 | 40048 ft | 482 kts | 313° |
| 2026-05-05 17:11 | -0.03143 | -72.95851 | 40051 ft | 482 kts | 313° |
| 2026-05-05 17:11 | 0.02126 | -73.01586 | 40059 ft | 483 kts | 313° |
| 2026-05-05 17:12 | 0.05935 | -73.05731 | 40047 ft | 482 kts | 313° |
| 2026-05-05 17:12 | 0.10467 | -73.10662 | 40057 ft | 482 kts | 313° |
| 2026-05-05 17:13 | 0.14978 | -73.15571 | 40071 ft | 482 kts | 313° |
| 2026-05-05 17:13 | 0.19522 | -73.20517 | 40064 ft | 483 kts | 313° |
| 2026-05-05 17:14 | 0.24057 | -73.25452 | 40062 ft | 482 kts | 313° |
| 2026-05-05 17:14 | 0.28595 | -73.30390 | 40071 ft | 482 kts | 313° |
| 2026-05-05 17:15 | 0.33139 | -73.35335 | 40058 ft | 482 kts | 313° |
| 2026-05-05 17:15 | 0.37679 | -73.40275 | 40068 ft | 482 kts | 313° |
| 2026-05-05 17:16 | 0.42216 | -73.45212 | 40069 ft | 483 kts | 313° |
| 2026-05-05 17:16 | 0.46756 | -73.50153 | 40059 ft | 482 kts | 313° |
| 2026-05-05 17:17 | 0.51266 | -73.55061 | 40072 ft | 482 kts | 313° |
| 2026-05-05 17:17 | 0.55808 | -73.60004 | 40060 ft | 482 kts | 313° |
| 2026-05-05 17:18 | 0.60348 | -73.64945 | 40045 ft | 482 kts | 313° |
| 2026-05-05 17:18 | 0.64892 | -73.69890 | 40030 ft | 482 kts | 313° |
| 2026-05-05 17:19 | 0.69430 | -73.74829 | 40036 ft | 482 kts | 313° |
| 2026-05-05 17:19 | 0.73970 | -73.79770 | 40041 ft | 483 kts | 313° |
| 2026-05-05 17:20 | 0.78510 | -73.84712 | 40029 ft | 482 kts | 313° |
| 2026-05-05 17:20 | 0.83018 | -73.89619 | 40041 ft | 482 kts | 313° |
| 2026-05-05 17:21 | 0.87584 | -73.94589 | 40038 ft | 483 kts | 313° |
| 2026-05-05 17:22 | 0.94362 | -74.01966 | 40038 ft | 482 kts | 313° |
| 2026-05-05 17:22 | 0.98899 | -74.06903 | 40044 ft | 483 kts | 313° |
| 2026-05-05 17:23 | 1.03440 | -74.11847 | 40031 ft | 482 kts | 313° |
| 2026-05-05 17:23 | 1.07960 | -74.16791 | 40043 ft | 481 kts | 312° |
| 2026-05-05 17:24 | 1.12469 | -74.21733 | 40041 ft | 482 kts | 312° |
| 2026-05-05 17:24 | 1.16987 | -74.26687 | 40032 ft | 482 kts | 312° |
| 2026-05-05 17:25 | 1.21508 | -74.31644 | 40045 ft | 482 kts | 312° |
| 2026-05-05 17:25 | 1.25998 | -74.36567 | 40039 ft | 482 kts | 312° |
| 2026-05-05 17:26 | 1.30514 | -74.41518 | 40036 ft | 482 kts | 312° |
| 2026-05-05 17:26 | 1.35025 | -74.46465 | 40049 ft | 482 kts | 312° |
| 2026-05-05 17:27 | 1.39550 | -74.51427 | 40038 ft | 482 kts | 312° |
| 2026-05-05 17:27 | 1.44064 | -74.56376 | 40042 ft | 482 kts | 312° |
| 2026-05-05 17:28 | 1.48576 | -74.61325 | 40050 ft | 482 kts | 312° |
| 2026-05-05 17:28 | 1.53094 | -74.66280 | 40039 ft | 482 kts | 312° |
| 2026-05-05 17:29 | 1.57596 | -74.71218 | 40047 ft | 480 kts | 312° |
| 2026-05-05 17:29 | 1.62078 | -74.76134 | 40050 ft | 481 kts | 312° |
| 2026-05-05 17:30 | 1.66587 | -74.81081 | 40031 ft | 481 kts | 312° |
| 2026-05-05 17:30 | 1.71096 | -74.86028 | 40032 ft | 481 kts | 312° |
| 2026-05-05 17:31 | 1.75605 | -74.90976 | 40042 ft | 481 kts | 312° |
| 2026-05-05 17:31 | 1.80116 | -74.95924 | 40029 ft | 482 kts | 312° |
| 2026-05-05 17:32 | 1.84630 | -75.00879 | 40032 ft | 482 kts | 312° |
| 2026-05-05 17:32 | 1.89142 | -75.05832 | 40031 ft | 481 kts | 312° |
| 2026-05-05 17:33 | 1.93618 | -75.10748 | 40025 ft | 481 kts | 311° |
| 2026-05-05 17:33 | 1.98134 | -75.15706 | 40037 ft | 482 kts | 312° |
| 2026-05-05 17:34 | 2.02645 | -75.20656 | 40023 ft | 482 kts | 311° |
| 2026-05-05 17:34 | 2.07168 | -75.25621 | 40025 ft | 482 kts | 311° |
| 2026-05-05 17:35 | 2.11685 | -75.30578 | 40031 ft | 482 kts | 311° |
| 2026-05-05 17:35 | 2.16195 | -75.35529 | 40047 ft | 482 kts | 311° |
| 2026-05-05 17:36 | 2.20707 | -75.40485 | 40046 ft | 482 kts | 311° |
| 2026-05-05 17:36 | 2.25227 | -75.45449 | 40036 ft | 482 kts | 311° |
| 2026-05-05 17:37 | 2.29734 | -75.50400 | 40048 ft | 482 kts | 311° |
| 2026-05-05 17:37 | 2.34252 | -75.55362 | 40046 ft | 482 kts | 311° |
| 2026-05-05 17:38 | 2.38759 | -75.60314 | 40058 ft | 482 kts | 311° |
| 2026-05-05 17:38 | 2.43277 | -75.65278 | 40053 ft | 482 kts | 311° |
| 2026-05-05 17:39 | 2.47791 | -75.70239 | 40053 ft | 482 kts | 311° |
| 2026-05-05 17:39 | 2.52273 | -75.75163 | 40059 ft | 482 kts | 311° |
| 2026-05-05 17:40 | 2.56783 | -75.80120 | 40055 ft | 482 kts | 311° |
| 2026-05-05 17:40 | 2.61295 | -75.85080 | 40070 ft | 482 kts | 311° |
| 2026-05-05 17:41 | 2.65801 | -75.90033 | 40078 ft | 482 kts | 311° |
| 2026-05-05 17:41 | 2.70322 | -75.95003 | 40078 ft | 482 kts | 311° |
| 2026-05-05 17:42 | 2.74834 | -75.99963 | 40092 ft | 482 kts | 311° |
| 2026-05-05 17:42 | 2.79342 | -76.04922 | 40098 ft | 481 kts | 311° |
| 2026-05-05 17:43 | 2.83848 | -76.09879 | 40098 ft | 482 kts | 311° |
| 2026-05-05 17:43 | 2.88344 | -76.14854 | 40111 ft | 482 kts | 311° |
| 2026-05-05 17:44 | 2.92819 | -76.19837 | 40105 ft | 482 kts | 311° |
| 2026-05-05 17:44 | 2.97290 | -76.24823 | 40106 ft | 481 kts | 311° |
| 2026-05-05 17:45 | 3.01732 | -76.29777 | 40118 ft | 481 kts | 311° |
| 2026-05-05 17:45 | 3.06209 | -76.34770 | 40105 ft | 481 kts | 311° |
| 2026-05-05 17:46 | 3.10678 | -76.39755 | 40095 ft | 482 kts | 311° |
| 2026-05-05 17:46 | 3.15156 | -76.44750 | 40078 ft | 481 kts | 311° |
| 2026-05-05 17:47 | 3.19622 | -76.49733 | 40073 ft | 481 kts | 311° |
| 2026-05-05 17:47 | 3.24095 | -76.54724 | 40079 ft | 481 kts | 311° |
| 2026-05-05 17:48 | 3.28572 | -76.59720 | 40065 ft | 482 kts | 311° |
| 2026-05-05 17:48 | 3.33048 | -76.64716 | 40062 ft | 481 kts | 311° |
| 2026-05-05 17:49 | 3.37512 | -76.69700 | 40058 ft | 482 kts | 311° |
| 2026-05-05 17:49 | 3.41989 | -76.74699 | 40042 ft | 482 kts | 311° |
| 2026-05-05 17:50 | 3.46462 | -76.79694 | 40027 ft | 481 kts | 311° |
| 2026-05-05 17:50 | 3.50933 | -76.84687 | 40011 ft | 482 kts | 311° |
| 2026-05-05 17:51 | 3.55401 | -76.89678 | 39991 ft | 482 kts | 311° |
| 2026-05-05 17:51 | 3.59879 | -76.94681 | 39968 ft | 482 kts | 311° |
| 2026-05-05 17:52 | 3.64359 | -76.99687 | 39947 ft | 483 kts | 311° |
| 2026-05-05 17:52 | 3.68816 | -77.04667 | 39928 ft | 483 kts | 311° |
| 2026-05-05 17:53 | 3.73289 | -77.09666 | 39912 ft | 483 kts | 311° |
| 2026-05-05 17:53 | 3.77776 | -77.14681 | 39906 ft | 483 kts | 311° |
| 2026-05-05 17:54 | 3.82263 | -77.19696 | 39915 ft | 483 kts | 311° |
| 2026-05-05 17:54 | 3.86743 | -77.24706 | 39911 ft | 482 kts | 311° |
| 2026-05-05 17:55 | 3.91219 | -77.29714 | 39903 ft | 483 kts | 311° |
| 2026-05-05 17:55 | 3.95700 | -77.34730 | 39918 ft | 483 kts | 311° |
| 2026-05-05 17:56 | 4.00156 | -77.39717 | 39910 ft | 483 kts | 311° |
| 2026-05-05 17:56 | 4.04631 | -77.44726 | 39914 ft | 483 kts | 312° |
| 2026-05-05 17:57 | 4.09119 | -77.49749 | 39927 ft | 483 kts | 312° |
| 2026-05-05 17:57 | 4.13598 | -77.54763 | 39916 ft | 483 kts | 312° |
| 2026-05-05 17:58 | 4.18089 | -77.59791 | 39926 ft | 483 kts | 312° |
| 2026-05-05 17:58 | 4.22568 | -77.64805 | 39934 ft | 483 kts | 312° |
| 2026-05-05 17:59 | 4.26295 | -77.68977 | 39925 ft | 483 kts | 312° |
| 2026-05-05 17:59 | 4.30773 | -77.73992 | 39917 ft | 483 kts | 312° |
| 2026-05-05 18:00 | 4.35255 | -77.79014 | 39908 ft | 483 kts | 312° |
| 2026-05-05 18:00 | 4.39731 | -77.84031 | 39922 ft | 483 kts | 312° |
| 2026-05-05 18:01 | 4.44216 | -77.89057 | 39915 ft | 483 kts | 312° |
| 2026-05-05 18:01 | 4.48688 | -77.94071 | 39908 ft | 483 kts | 312° |
| 2026-05-05 18:02 | 4.53173 | -77.99102 | 39917 ft | 483 kts | 312° |
| 2026-05-05 18:02 | 4.57646 | -78.04123 | 39910 ft | 483 kts | 312° |
| 2026-05-05 18:03 | 4.62124 | -78.09145 | 39909 ft | 483 kts | 312° |
| 2026-05-05 18:03 | 4.66599 | -78.14166 | 39919 ft | 483 kts | 312° |
| 2026-05-05 18:04 | 4.71069 | -78.19184 | 39906 ft | 482 kts | 312° |
| 2026-05-05 18:04 | 4.75531 | -78.24194 | 39914 ft | 482 kts | 312° |
| 2026-05-05 18:05 | 4.79977 | -78.29185 | 39917 ft | 482 kts | 312° |
| 2026-05-05 18:05 | 4.84447 | -78.34205 | 39905 ft | 482 kts | 312° |
| 2026-05-05 18:06 | 4.88916 | -78.39225 | 39918 ft | 482 kts | 312° |
| 2026-05-05 18:06 | 4.93385 | -78.44242 | 39913 ft | 482 kts | 312° |
| 2026-05-05 18:07 | 4.97853 | -78.49262 | 39907 ft | 482 kts | 312° |
| 2026-05-05 18:07 | 5.02316 | -78.54282 | 39920 ft | 482 kts | 312° |
| 2026-05-05 18:08 | 5.06783 | -78.59306 | 39909 ft | 482 kts | 312° |
| 2026-05-05 18:08 | 5.11219 | -78.64295 | 39910 ft | 482 kts | 312° |
| 2026-05-05 18:09 | 5.15683 | -78.69315 | 39920 ft | 482 kts | 312° |
| 2026-05-05 18:09 | 5.20148 | -78.74339 | 39906 ft | 482 kts | 312° |
| 2026-05-05 18:10 | 5.24615 | -78.79365 | 39911 ft | 482 kts | 312° |
| 2026-05-05 18:10 | 5.29080 | -78.84390 | 39909 ft | 483 kts | 312° |
| 2026-05-05 18:11 | 5.33544 | -78.89413 | 39902 ft | 482 kts | 312° |
| 2026-05-05 18:11 | 5.38008 | -78.94438 | 39915 ft | 483 kts | 312° |
| 2026-05-05 18:12 | 5.42482 | -78.99476 | 39905 ft | 483 kts | 312° |
| 2026-05-05 18:12 | 5.46947 | -79.04507 | 39905 ft | 483 kts | 312° |
| 2026-05-05 18:13 | 5.51421 | -79.09548 | 39915 ft | 483 kts | 312° |
| 2026-05-05 18:13 | 5.55889 | -79.14585 | 39902 ft | 483 kts | 312° |
| 2026-05-05 18:14 | 5.60361 | -79.19629 | 39910 ft | 484 kts | 312° |
| 2026-05-05 18:14 | 5.64833 | -79.24674 | 39912 ft | 484 kts | 312° |
| 2026-05-05 18:15 | 5.69317 | -79.29731 | 39901 ft | 484 kts | 312° |
| 2026-05-05 18:15 | 5.73811 | -79.34770 | 39914 ft | 485 kts | 313° |
| 2026-05-05 18:16 | 5.78346 | -79.39771 | 39907 ft | 485 kts | 313° |
| 2026-05-05 18:16 | 5.82902 | -79.44781 | 39904 ft | 485 kts | 313° |
| 2026-05-05 18:17 | 5.87452 | -79.49787 | 39915 ft | 486 kts | 313° |
| 2026-05-05 18:17 | 5.91978 | -79.54768 | 39904 ft | 486 kts | 313° |
| 2026-05-05 18:18 | 5.96531 | -79.59781 | 39907 ft | 485 kts | 313° |
| 2026-05-05 18:18 | 6.01065 | -79.64776 | 39890 ft | 481 kts | 313° |
| 2026-05-05 18:19 | 6.05571 | -79.69742 | 39881 ft | 481 kts | 313° |
| 2026-05-05 18:19 | 6.10081 | -79.74712 | 39895 ft | 482 kts | 313° |
| 2026-05-05 18:20 | 6.14601 | -79.79692 | 39882 ft | 481 kts | 313° |
| 2026-05-05 18:20 | 6.19114 | -79.84667 | 39889 ft | 481 kts | 313° |
| 2026-05-05 18:21 | 6.23623 | -79.89639 | 39892 ft | 482 kts | 313° |
| 2026-05-05 18:21 | 6.28135 | -79.94615 | 39881 ft | 481 kts | 313° |
| 2026-05-05 18:22 | 6.32647 | -79.99592 | 39894 ft | 481 kts | 313° |
| 2026-05-05 18:22 | 6.37131 | -80.04536 | 39889 ft | 482 kts | 313° |
| 2026-05-05 18:23 | 6.41645 | -80.09516 | 39884 ft | 482 kts | 313° |
| 2026-05-05 18:23 | 6.46154 | -80.14494 | 39897 ft | 482 kts | 313° |
| 2026-05-05 18:24 | 6.50673 | -80.19485 | 39888 ft | 482 kts | 313° |
| 2026-05-05 18:24 | 6.55185 | -80.24469 | 39889 ft | 482 kts | 313° |
| 2026-05-05 18:25 | 6.59703 | -80.29466 | 39899 ft | 483 kts | 313° |
| 2026-05-05 18:25 | 6.64222 | -80.34464 | 39886 ft | 483 kts | 313° |
| 2026-05-05 18:26 | 6.68740 | -80.39460 | 39894 ft | 482 kts | 313° |
| 2026-05-05 18:26 | 6.73258 | -80.44453 | 39897 ft | 483 kts | 313° |
| 2026-05-05 18:27 | 6.77769 | -80.49446 | 39886 ft | 483 kts | 313° |
| 2026-05-05 18:27 | 6.82303 | -80.54466 | 39898 ft | 483 kts | 313° |
| 2026-05-05 18:28 | 6.89052 | -80.61939 | 39887 ft | 483 kts | 313° |
| 2026-05-05 18:28 | 6.93576 | -80.66949 | 39895 ft | 483 kts | 313° |
| 2026-05-05 18:29 | 6.98099 | -80.71960 | 39899 ft | 484 kts | 313° |
| 2026-05-05 18:29 | 7.02622 | -80.76973 | 39887 ft | 484 kts | 313° |
| 2026-05-05 18:30 | 7.07150 | -80.81992 | 39899 ft | 484 kts | 313° |
| 2026-05-05 18:30 | 7.11646 | -80.86978 | 39895 ft | 484 kts | 313° |
| 2026-05-05 18:31 | 7.16169 | -80.91991 | 39887 ft | 484 kts | 313° |
| 2026-05-05 18:31 | 7.20695 | -80.97011 | 39901 ft | 484 kts | 313° |
| 2026-05-05 18:32 | 7.25221 | -81.02035 | 39890 ft | 484 kts | 313° |
| 2026-05-05 18:32 | 7.29755 | -81.07068 | 39890 ft | 484 kts | 313° |
| 2026-05-05 18:33 | 7.34284 | -81.12099 | 39899 ft | 485 kts | 313° |
| 2026-05-05 18:33 | 7.38814 | -81.17134 | 39886 ft | 485 kts | 312° |
| 2026-05-05 18:34 | 7.43346 | -81.22175 | 39893 ft | 485 kts | 312° |
| 2026-05-05 18:34 | 7.47871 | -81.27205 | 39895 ft | 485 kts | 312° |
| 2026-05-05 18:35 | 7.52414 | -81.32253 | 39883 ft | 485 kts | 312° |
| 2026-05-05 18:35 | 7.56915 | -81.37264 | 39893 ft | 486 kts | 312° |
| 2026-05-05 18:36 | 7.61488 | -81.42354 | 39891 ft | 487 kts | 312° |
| 2026-05-05 18:36 | 7.65998 | -81.47374 | 39880 ft | 487 kts | 312° |
| 2026-05-05 18:37 | 7.70553 | -81.52447 | 39893 ft | 487 kts | 312° |
| 2026-05-05 18:37 | 7.75101 | -81.57513 | 39884 ft | 487 kts | 312° |
| 2026-05-05 18:38 | 7.79653 | -81.62586 | 39880 ft | 487 kts | 312° |
| 2026-05-05 18:38 | 7.84192 | -81.67647 | 39891 ft | 487 kts | 312° |
| 2026-05-05 18:39 | 7.88735 | -81.72713 | 39878 ft | 487 kts | 312° |
| 2026-05-05 18:39 | 7.93257 | -81.77756 | 39883 ft | 488 kts | 312° |
| 2026-05-05 18:40 | 7.97805 | -81.82831 | 39886 ft | 488 kts | 312° |
| 2026-05-05 18:40 | 8.02355 | -81.87910 | 39873 ft | 488 kts | 312° |
| 2026-05-05 18:41 | 8.06904 | -81.92990 | 39884 ft | 488 kts | 312° |
| 2026-05-05 18:41 | 8.11448 | -81.98067 | 39880 ft | 488 kts | 312° |
| 2026-05-05 18:42 | 8.15998 | -82.03152 | 39872 ft | 487 kts | 312° |
| 2026-05-05 18:42 | 8.20544 | -82.08235 | 39885 ft | 488 kts | 312° |
| 2026-05-05 18:43 | 8.25088 | -82.13317 | 39875 ft | 488 kts | 312° |
| 2026-05-05 18:43 | 8.29641 | -82.18413 | 39874 ft | 487 kts | 312° |
| 2026-05-05 18:44 | 8.34181 | -82.23499 | 39884 ft | 488 kts | 312° |
| 2026-05-05 18:44 | 8.38696 | -82.28553 | 39871 ft | 488 kts | 312° |
| 2026-05-05 18:45 | 8.43248 | -82.33649 | 39880 ft | 488 kts | 312° |
| 2026-05-05 18:45 | 8.47782 | -82.38730 | 39880 ft | 487 kts | 312° |
| 2026-05-05 18:46 | 8.52312 | -82.43807 | 39871 ft | 486 kts | 312° |
| 2026-05-05 18:46 | 8.56844 | -82.48890 | 39885 ft | 487 kts | 312° |
| 2026-05-05 18:47 | 8.60604 | -82.53107 | 39882 ft | 486 kts | 312° |
| 2026-05-05 18:47 | 8.65137 | -82.58197 | 39879 ft | 486 kts | 312° |
| 2026-05-05 18:48 | 8.69663 | -82.63278 | 39894 ft | 486 kts | 312° |
| 2026-05-05 18:48 | 8.74188 | -82.68360 | 39892 ft | 486 kts | 312° |
| 2026-05-05 18:49 | 8.78707 | -82.73438 | 39895 ft | 486 kts | 312° |
| 2026-05-05 18:49 | 8.83224 | -82.78514 | 39908 ft | 485 kts | 312° |
| 2026-05-05 18:50 | 8.87706 | -82.83606 | 39904 ft | 485 kts | 311° |
| 2026-05-05 18:50 | 8.92156 | -82.88743 | 39912 ft | 485 kts | 311° |
| 2026-05-05 18:51 | 8.96562 | -82.93846 | 39919 ft | 485 kts | 311° |
| 2026-05-05 18:51 | 9.01006 | -82.98992 | 39910 ft | 485 kts | 311° |
| 2026-05-05 18:52 | 9.05443 | -83.04132 | 39921 ft | 485 kts | 311° |
| 2026-05-05 18:52 | 9.09880 | -83.09272 | 39940 ft | 485 kts | 311° |
| 2026-05-05 18:53 | 9.14318 | -83.14416 | 39956 ft | 485 kts | 311° |
| 2026-05-05 18:53 | 9.18760 | -83.19568 | 39966 ft | 485 kts | 311° |
| 2026-05-05 18:54 | 9.23194 | -83.24711 | 39964 ft | 485 kts | 311° |
| 2026-05-05 18:54 | 9.27624 | -83.29854 | 39975 ft | 483 kts | 311° |
| 2026-05-05 18:55 | 9.32012 | -83.34951 | 39982 ft | 484 kts | 311° |
| 2026-05-05 18:55 | 9.36431 | -83.40085 | 39980 ft | 484 kts | 311° |
| 2026-05-05 18:56 | 9.40853 | -83.45224 | 39995 ft | 483 kts | 311° |
| 2026-05-05 18:56 | 9.45274 | -83.50363 | 40004 ft | 484 kts | 311° |
| 2026-05-05 18:57 | 9.49690 | -83.55498 | 40003 ft | 483 kts | 311° |
| 2026-05-05 18:57 | 9.54108 | -83.60640 | 40016 ft | 483 kts | 311° |
| 2026-05-05 18:58 | 9.58517 | -83.65771 | 40029 ft | 483 kts | 311° |
| 2026-05-05 18:58 | 9.62929 | -83.70905 | 40037 ft | 483 kts | 311° |
| 2026-05-05 18:59 | 9.67348 | -83.76051 | 40049 ft | 483 kts | 311° |
| 2026-05-05 18:59 | 9.71757 | -83.81189 | 40062 ft | 483 kts | 311° |
| 2026-05-05 19:00 | 9.76166 | -83.86331 | 40075 ft | 483 kts | 311° |
| 2026-05-05 19:00 | 9.80565 | -83.91463 | 40083 ft | 483 kts | 311° |
| 2026-05-05 19:01 | 9.84976 | -83.96610 | 40091 ft | 483 kts | 311° |
| 2026-05-05 19:01 | 9.89349 | -84.01717 | 40098 ft | 483 kts | 311° |
| 2026-05-05 19:02 | 9.93746 | -84.06853 | 40097 ft | 483 kts | 311° |
| 2026-05-05 19:02 | 9.98150 | -84.11999 | 40102 ft | 483 kts | 311° |
| 2026-05-05 19:03 | 10.02555 | -84.17149 | 40102 ft | 483 kts | 311° |
| 2026-05-05 19:03 | 10.06958 | -84.22300 | 40094 ft | 482 kts | 311° |
| 2026-05-05 19:04 | 10.11357 | -84.27447 | 40106 ft | 482 kts | 311° |
| 2026-05-05 19:04 | 10.15753 | -84.32594 | 40095 ft | 483 kts | 311° |
| 2026-05-05 19:05 | 10.20148 | -84.37742 | 40088 ft | 482 kts | 311° |
| 2026-05-05 19:05 | 10.24542 | -84.42891 | 40093 ft | 482 kts | 311° |
| 2026-05-05 19:06 | 10.28934 | -84.48040 | 40077 ft | 482 kts | 311° |
| 2026-05-05 19:06 | 10.33323 | -84.53187 | 40064 ft | 482 kts | 311° |
| 2026-05-05 19:07 | 10.37714 | -84.58340 | 40056 ft | 482 kts | 311° |
| 2026-05-05 19:07 | 10.42109 | -84.63500 | 40043 ft | 482 kts | 311° |
| 2026-05-05 19:08 | 10.46493 | -84.68650 | 40030 ft | 482 kts | 311° |
| 2026-05-05 19:08 | 10.50845 | -84.73763 | 40015 ft | 481 kts | 311° |
| 2026-05-05 19:09 | 10.55227 | -84.78915 | 40003 ft | 481 kts | 311° |
| 2026-05-05 19:09 | 10.59606 | -84.84065 | 39989 ft | 482 kts | 311° |
| 2026-05-05 19:10 | 10.63980 | -84.89212 | 39975 ft | 481 kts | 311° |
| 2026-05-05 19:10 | 10.68356 | -84.94365 | 39962 ft | 481 kts | 311° |
| 2026-05-05 19:11 | 10.72734 | -84.99522 | 39955 ft | 481 kts | 311° |
| 2026-05-05 19:11 | 10.77111 | -85.04682 | 39951 ft | 482 kts | 310° |
| 2026-05-05 19:12 | 10.81487 | -85.09844 | 39939 ft | 481 kts | 310° |
| 2026-05-05 19:12 | 10.85853 | -85.14995 | 39944 ft | 481 kts | 310° |
| 2026-05-05 19:13 | 10.90223 | -85.20152 | 39941 ft | 481 kts | 310° |
| 2026-05-05 19:13 | 10.94563 | -85.25274 | 39929 ft | 481 kts | 310° |
| 2026-05-05 19:14 | 10.98932 | -85.30433 | 39941 ft | 482 kts | 310° |
| 2026-05-05 19:14 | 11.03303 | -85.35602 | 39932 ft | 481 kts | 310° |
| 2026-05-05 19:15 | 11.07665 | -85.40763 | 39929 ft | 481 kts | 310° |
| 2026-05-05 19:15 | 11.12037 | -85.45937 | 39941 ft | 481 kts | 310° |
| 2026-05-05 19:16 | 11.16405 | -85.51101 | 39927 ft | 481 kts | 310° |
| 2026-05-05 19:16 | 11.20807 | -85.56223 | 39933 ft | 481 kts | 311° |
| 2026-05-05 19:17 | 11.25195 | -85.61298 | 39921 ft | 480 kts | 311° |
| 2026-05-05 19:17 | 11.29617 | -85.66415 | 39912 ft | 480 kts | 311° |
| 2026-05-05 19:18 | 11.34027 | -85.71524 | 39904 ft | 480 kts | 310° |
| 2026-05-05 19:18 | 11.38433 | -85.76633 | 39880 ft | 480 kts | 310° |
| 2026-05-05 19:19 | 11.42838 | -85.81743 | 39864 ft | 479 kts | 310° |
| 2026-05-05 19:19 | 11.47243 | -85.86855 | 39868 ft | 480 kts | 310° |
| 2026-05-05 19:20 | 11.51641 | -85.91959 | 39865 ft | 479 kts | 310° |
| 2026-05-05 19:20 | 11.56049 | -85.97078 | 39855 ft | 479 kts | 310° |
| 2026-05-05 19:21 | 11.60420 | -86.02158 | 39864 ft | 480 kts | 310° |
| 2026-05-05 19:21 | 11.64822 | -86.07277 | 39857 ft | 480 kts | 310° |
| 2026-05-05 19:22 | 11.69227 | -86.12402 | 39849 ft | 480 kts | 310° |
| 2026-05-05 19:22 | 11.73619 | -86.17516 | 39860 ft | 479 kts | 310° |
| 2026-05-05 19:23 | 11.78018 | -86.22644 | 39848 ft | 479 kts | 310° |
| 2026-05-05 19:23 | 11.82413 | -86.27767 | 39849 ft | 479 kts | 310° |
| 2026-05-05 19:24 | 11.86807 | -86.32889 | 39858 ft | 480 kts | 310° |
| 2026-05-05 19:24 | 11.91176 | -86.37983 | 39844 ft | 480 kts | 310° |
| 2026-05-05 19:25 | 11.95576 | -86.43119 | 39852 ft | 480 kts | 310° |
| 2026-05-05 19:25 | 11.99979 | -86.48260 | 39855 ft | 480 kts | 310° |
| 2026-05-05 19:26 | 12.04363 | -86.53383 | 39843 ft | 478 kts | 310° |
| 2026-05-05 19:26 | 12.08742 | -86.58505 | 39856 ft | 479 kts | 310° |
| 2026-05-05 19:27 | 12.13122 | -86.63630 | 39856 ft | 479 kts | 310° |
| 2026-05-05 19:27 | 12.17505 | -86.68756 | 39850 ft | 478 kts | 310° |
| 2026-05-05 19:28 | 12.21879 | -86.73877 | 39865 ft | 479 kts | 310° |
| 2026-05-05 19:28 | 12.26257 | -86.79004 | 39866 ft | 479 kts | 310° |
| 2026-05-05 19:29 | 12.30608 | -86.84105 | 39861 ft | 478 kts | 310° |
| 2026-05-05 19:29 | 12.34998 | -86.89253 | 39877 ft | 479 kts | 310° |
| 2026-05-05 19:30 | 12.39368 | -86.94382 | 39876 ft | 478 kts | 310° |
| 2026-05-05 19:30 | 12.43713 | -86.99484 | 39875 ft | 478 kts | 310° |
| 2026-05-05 19:31 | 12.48078 | -87.04612 | 39890 ft | 478 kts | 310° |
| 2026-05-05 19:31 | 12.52445 | -87.09746 | 39885 ft | 478 kts | 310° |
| 2026-05-05 19:32 | 12.56812 | -87.14882 | 39887 ft | 478 kts | 310° |
| 2026-05-05 19:32 | 12.61175 | -87.20016 | 39880 ft | 478 kts | 310° |
| 2026-05-05 19:33 | 12.65536 | -87.25157 | 39861 ft | 478 kts | 310° |
| 2026-05-05 19:33 | 12.69891 | -87.30289 | 39862 ft | 478 kts | 310° |
| 2026-05-05 19:34 | 12.74255 | -87.35431 | 39871 ft | 478 kts | 310° |
| 2026-05-05 19:35 | 12.80054 | -87.42270 | 39856 ft | 478 kts | 310° |
| 2026-05-05 19:35 | 12.84405 | -87.47407 | 39868 ft | 478 kts | 310° |
| 2026-05-05 19:36 | 12.89476 | -87.53397 | 39855 ft | 478 kts | 310° |
| 2026-05-05 19:36 | 12.93109 | -87.57692 | 39846 ft | 476 kts | 310° |
| 2026-05-05 19:37 | 12.97459 | -87.62835 | 39850 ft | 477 kts | 310° |
| 2026-05-05 19:37 | 13.01802 | -87.67975 | 39838 ft | 477 kts | 310° |
| 2026-05-05 19:38 | 13.06115 | -87.73081 | 39824 ft | 476 kts | 310° |
| 2026-05-05 19:38 | 13.10449 | -87.78217 | 39810 ft | 476 kts | 310° |
| 2026-05-05 19:39 | 13.14772 | -87.83342 | 39799 ft | 476 kts | 310° |
| 2026-05-05 19:39 | 13.19103 | -87.88475 | 39786 ft | 475 kts | 310° |
| 2026-05-05 19:40 | 13.23423 | -87.93600 | 39775 ft | 475 kts | 310° |
| 2026-05-05 19:40 | 13.27749 | -87.98737 | 39769 ft | 475 kts | 310° |
| 2026-05-05 19:41 | 13.32071 | -88.03870 | 39759 ft | 475 kts | 310° |
| 2026-05-05 19:41 | 13.36394 | -88.09005 | 39766 ft | 475 kts | 310° |
| 2026-05-05 19:42 | 13.40707 | -88.14134 | 39762 ft | 475 kts | 310° |
| 2026-05-05 19:42 | 13.45019 | -88.19270 | 39751 ft | 474 kts | 310° |
| 2026-05-05 19:43 | 13.49325 | -88.24402 | 39768 ft | 474 kts | 310° |
| 2026-05-05 19:43 | 13.53630 | -88.29534 | 39784 ft | 474 kts | 310° |
| 2026-05-05 19:44 | 13.57928 | -88.34660 | 39800 ft | 474 kts | 310° |
| 2026-05-05 19:44 | 13.62231 | -88.39793 | 39818 ft | 474 kts | 310° |
| 2026-05-05 19:45 | 13.66540 | -88.44936 | 39839 ft | 474 kts | 310° |
| 2026-05-05 19:45 | 13.70809 | -88.50037 | 39861 ft | 474 kts | 310° |
| 2026-05-05 19:46 | 13.75108 | -88.55174 | 39884 ft | 473 kts | 310° |
| 2026-05-05 19:46 | 13.79407 | -88.60316 | 39915 ft | 474 kts | 310° |
| 2026-05-05 19:47 | 13.83699 | -88.65452 | 39941 ft | 474 kts | 310° |
| 2026-05-05 19:47 | 13.87997 | -88.70599 | 39965 ft | 473 kts | 310° |
| 2026-05-05 19:48 | 13.92293 | -88.75743 | 39984 ft | 474 kts | 310° |
| 2026-05-05 19:48 | 13.96575 | -88.80873 | 40001 ft | 474 kts | 310° |
| 2026-05-05 19:49 | 14.00866 | -88.86020 | 40019 ft | 474 kts | 310° |
| 2026-05-05 19:49 | 14.05139 | -88.91153 | 40021 ft | 471 kts | 310° |
| 2026-05-05 19:50 | 14.09406 | -88.96282 | 40032 ft | 472 kts | 309° |
| 2026-05-05 19:50 | 14.13671 | -89.01409 | 40038 ft | 472 kts | 309° |
| 2026-05-05 19:51 | 14.17939 | -89.06543 | 40038 ft | 471 kts | 309° |
| 2026-05-05 19:51 | 14.22206 | -89.11679 | 40048 ft | 471 kts | 310° |
| 2026-05-05 19:52 | 14.26484 | -89.16826 | 40072 ft | 472 kts | 310° |
| 2026-05-05 19:52 | 14.30751 | -89.21964 | 40094 ft | 472 kts | 310° |
| 2026-05-05 19:53 | 14.35024 | -89.27116 | 40108 ft | 472 kts | 310° |
| 2026-05-05 19:53 | 14.39291 | -89.32264 | 40109 ft | 472 kts | 310° |
| 2026-05-05 19:54 | 14.43560 | -89.37418 | 40106 ft | 472 kts | 310° |
| 2026-05-05 19:54 | 14.47820 | -89.42564 | 40119 ft | 472 kts | 310° |
| 2026-05-05 19:55 | 14.52087 | -89.47722 | 40113 ft | 472 kts | 310° |
| 2026-05-05 19:55 | 14.56346 | -89.52874 | 40115 ft | 472 kts | 310° |
| 2026-05-05 19:56 | 14.60579 | -89.57999 | 40113 ft | 472 kts | 310° |
| 2026-05-05 19:56 | 14.64833 | -89.63152 | 40126 ft | 472 kts | 310° |
| 2026-05-05 19:57 | 14.69096 | -89.68318 | 40143 ft | 472 kts | 309° |
| 2026-05-05 19:57 | 14.73349 | -89.73476 | 40143 ft | 472 kts | 309° |
| 2026-05-05 19:58 | 14.77601 | -89.78636 | 40139 ft | 472 kts | 310° |
| 2026-05-05 19:58 | 14.81859 | -89.83808 | 40139 ft | 472 kts | 309° |
| 2026-05-05 19:59 | 14.86107 | -89.88971 | 40121 ft | 471 kts | 309° |
| 2026-05-05 19:59 | 14.90346 | -89.94130 | 40130 ft | 470 kts | 309° |
| 2026-05-05 20:00 | 14.94558 | -89.99258 | 40141 ft | 471 kts | 309° |
| 2026-05-05 20:00 | 14.98800 | -90.04425 | 40131 ft | 472 kts | 309° |
| 2026-05-05 20:01 | 15.03054 | -90.09608 | 40142 ft | 472 kts | 309° |
| 2026-05-05 20:01 | 15.07305 | -90.14792 | 40143 ft | 472 kts | 309° |
| 2026-05-05 20:02 | 15.11548 | -90.19969 | 40134 ft | 472 kts | 309° |
| 2026-05-05 20:02 | 15.15794 | -90.25152 | 40147 ft | 471 kts | 309° |
| 2026-05-05 20:03 | 15.20038 | -90.30331 | 40139 ft | 472 kts | 309° |
| 2026-05-05 20:03 | 15.24268 | -90.35503 | 40145 ft | 471 kts | 309° |
| 2026-05-05 20:04 | 15.28499 | -90.40681 | 40141 ft | 471 kts | 309° |
| 2026-05-05 20:04 | 15.32731 | -90.45863 | 40127 ft | 471 kts | 309° |
| 2026-05-05 20:05 | 15.36958 | -90.51042 | 40127 ft | 471 kts | 309° |
| 2026-05-05 20:05 | 15.41181 | -90.56219 | 40118 ft | 471 kts | 309° |
| 2026-05-05 20:06 | 15.45411 | -90.61409 | 40089 ft | 471 kts | 309° |
| 2026-05-05 20:06 | 15.49612 | -90.66566 | 40069 ft | 471 kts | 309° |
| 2026-05-05 20:07 | 15.53839 | -90.71759 | 40055 ft | 471 kts | 309° |
| 2026-05-05 20:07 | 15.58064 | -90.76953 | 40042 ft | 471 kts | 309° |
| 2026-05-05 20:08 | 15.62292 | -90.82155 | 40037 ft | 471 kts | 309° |
| 2026-05-05 20:08 | 15.66511 | -90.87349 | 40029 ft | 472 kts | 309° |
| 2026-05-05 20:09 | 15.70740 | -90.92559 | 40017 ft | 472 kts | 309° |
| 2026-05-05 20:09 | 15.74967 | -90.97770 | 40015 ft | 472 kts | 309° |
| 2026-05-05 20:10 | 15.79197 | -91.02989 | 40004 ft | 473 kts | 309° |
| 2026-05-05 20:10 | 15.83433 | -91.08218 | 39995 ft | 473 kts | 309° |
| 2026-05-05 20:11 | 15.87671 | -91.13454 | 39995 ft | 473 kts | 309° |
| 2026-05-05 20:11 | 15.91901 | -91.18684 | 39984 ft | 473 kts | 309° |
| 2026-05-05 20:12 | 15.96106 | -91.23887 | 39975 ft | 473 kts | 309° |
| 2026-05-05 20:12 | 16.00345 | -91.29135 | 39976 ft | 474 kts | 309° |
| 2026-05-05 20:13 | 16.04577 | -91.34377 | 39963 ft | 472 kts | 309° |
| 2026-05-05 20:13 | 16.08793 | -91.39616 | 39960 ft | 474 kts | 309° |
| 2026-05-05 20:14 | 16.13008 | -91.44894 | 39954 ft | 474 kts | 309° |
| 2026-05-05 20:14 | 16.17215 | -91.50173 | 39941 ft | 474 kts | 309° |
| 2026-05-05 20:15 | 16.21415 | -91.55450 | 39940 ft | 474 kts | 309° |
| 2026-05-05 20:15 | 16.25625 | -91.60739 | 39929 ft | 474 kts | 309° |
| 2026-05-05 20:16 | 16.29829 | -91.66024 | 39920 ft | 474 kts | 309° |
| 2026-05-05 20:16 | 16.34037 | -91.71316 | 39920 ft | 474 kts | 309° |
| 2026-05-05 20:17 | 16.38241 | -91.76607 | 39893 ft | 474 kts | 308° |
| 2026-05-05 20:17 | 16.42444 | -91.81901 | 39874 ft | 474 kts | 308° |
| 2026-05-05 20:18 | 16.46647 | -91.87200 | 39861 ft | 474 kts | 309° |
| 2026-05-05 20:18 | 16.50855 | -91.92503 | 39842 ft | 474 kts | 309° |
| 2026-05-05 20:19 | 16.55020 | -91.97756 | 39829 ft | 474 kts | 309° |
| 2026-05-05 20:19 | 16.59218 | -92.03059 | 39824 ft | 475 kts | 309° |
| 2026-05-05 20:20 | 16.63418 | -92.08369 | 39849 ft | 475 kts | 309° |
| 2026-05-05 20:20 | 16.67616 | -92.13681 | 39860 ft | 474 kts | 309° |
| 2026-05-05 20:21 | 16.71819 | -92.19007 | 39850 ft | 475 kts | 309° |
| 2026-05-05 20:21 | 16.76018 | -92.24332 | 39853 ft | 474 kts | 309° |
| 2026-05-05 20:22 | 16.80219 | -92.29659 | 39848 ft | 475 kts | 309° |
| 2026-05-05 20:22 | 16.83699 | -92.34073 | 39842 ft | 474 kts | 309° |
| 2026-05-05 20:23 | 16.87892 | -92.39396 | 39856 ft | 474 kts | 309° |
| 2026-05-05 20:23 | 16.92079 | -92.44717 | 39859 ft | 474 kts | 309° |
| 2026-05-05 20:24 | 16.96261 | -92.50036 | 39851 ft | 474 kts | 309° |
| 2026-05-05 20:24 | 17.00445 | -92.55363 | 39866 ft | 474 kts | 309° |
| 2026-05-05 20:25 | 17.04629 | -92.60692 | 39862 ft | 474 kts | 309° |
| 2026-05-05 20:25 | 17.08780 | -92.65984 | 39860 ft | 474 kts | 309° |
| 2026-05-05 20:26 | 17.12956 | -92.71312 | 39873 ft | 474 kts | 309° |
| 2026-05-05 20:26 | 17.17130 | -92.76642 | 39864 ft | 474 kts | 309° |
| 2026-05-05 20:27 | 17.21308 | -92.81981 | 39867 ft | 474 kts | 309° |
| 2026-05-05 20:27 | 17.25482 | -92.87319 | 39886 ft | 474 kts | 309° |
| 2026-05-05 20:28 | 17.29665 | -92.92674 | 39890 ft | 475 kts | 309° |
| 2026-05-05 20:28 | 17.33835 | -92.98019 | 39876 ft | 475 kts | 309° |
| 2026-05-05 20:29 | 17.38017 | -93.03382 | 39876 ft | 475 kts | 309° |
| 2026-05-05 20:29 | 17.42193 | -93.08740 | 39879 ft | 475 kts | 309° |
| 2026-05-05 20:30 | 17.46373 | -93.14102 | 39864 ft | 475 kts | 309° |
| 2026-05-05 20:30 | 17.50555 | -93.19473 | 39865 ft | 475 kts | 309° |
| 2026-05-05 20:31 | 17.54697 | -93.24798 | 39868 ft | 475 kts | 309° |
| 2026-05-05 20:31 | 17.58885 | -93.30189 | 39855 ft | 475 kts | 309° |
| 2026-05-05 20:32 | 17.63062 | -93.35569 | 39868 ft | 476 kts | 309° |
| 2026-05-05 20:32 | 17.67237 | -93.40952 | 39864 ft | 476 kts | 309° |
| 2026-05-05 20:33 | 17.71419 | -93.46350 | 39857 ft | 477 kts | 309° |
| 2026-05-05 20:33 | 17.75572 | -93.51718 | 39869 ft | 477 kts | 309° |
| 2026-05-05 20:34 | 17.79756 | -93.57127 | 39858 ft | 477 kts | 309° |
| 2026-05-05 20:34 | 17.83934 | -93.62531 | 39860 ft | 477 kts | 309° |
| 2026-05-05 20:35 | 17.88118 | -93.67943 | 39868 ft | 477 kts | 309° |
| 2026-05-05 20:35 | 17.92298 | -93.73355 | 39854 ft | 477 kts | 309° |
| 2026-05-05 20:36 | 17.96482 | -93.78782 | 39863 ft | 478 kts | 309° |
| 2026-05-05 20:36 | 18.00666 | -93.84214 | 39860 ft | 478 kts | 309° |
| 2026-05-05 20:37 | 18.04847 | -93.89645 | 39845 ft | 478 kts | 309° |
| 2026-05-05 20:37 | 18.09028 | -93.95079 | 39851 ft | 478 kts | 309° |
| 2026-05-05 20:38 | 18.13205 | -94.00513 | 39851 ft | 478 kts | 309° |
| 2026-05-05 20:38 | 18.17382 | -94.05947 | 39835 ft | 478 kts | 309° |
| 2026-05-05 20:39 | 18.21530 | -94.11351 | 39843 ft | 478 kts | 309° |
| 2026-05-05 20:39 | 18.25734 | -94.16832 | 39844 ft | 478 kts | 309° |
| 2026-05-05 20:40 | 18.29987 | -94.22385 | 39834 ft | 478 kts | 309° |
| 2026-05-05 20:40 | 18.34266 | -94.27981 | 39848 ft | 478 kts | 309° |
| 2026-05-05 20:41 | 18.38402 | -94.33394 | 39838 ft | 478 kts | 309° |
| 2026-05-05 20:41 | 18.42570 | -94.38849 | 39839 ft | 478 kts | 309° |
| 2026-05-05 20:42 | 18.46738 | -94.44309 | 39847 ft | 478 kts | 309° |
| 2026-05-05 20:42 | 18.50903 | -94.49767 | 39834 ft | 478 kts | 309° |
| 2026-05-05 20:43 | 18.55069 | -94.55230 | 39844 ft | 478 kts | 309° |
| 2026-05-05 20:43 | 18.59203 | -94.60659 | 39852 ft | 479 kts | 309° |
| 2026-05-05 20:44 | 18.63365 | -94.66133 | 39855 ft | 478 kts | 309° |
| 2026-05-05 20:44 | 18.67526 | -94.71604 | 39850 ft | 478 kts | 309° |
| 2026-05-05 20:45 | 18.73762 | -94.79822 | 39863 ft | 478 kts | 309° |
| 2026-05-05 20:45 | 18.77914 | -94.85297 | 39852 ft | 479 kts | 309° |
| 2026-05-05 20:46 | 18.82074 | -94.90787 | 39864 ft | 478 kts | 309° |
| 2026-05-05 20:46 | 18.86234 | -94.96282 | 39865 ft | 479 kts | 308° |
| 2026-05-05 20:47 | 18.90383 | -95.01766 | 39856 ft | 478 kts | 309° |
| 2026-05-05 20:47 | 18.94513 | -95.07226 | 39869 ft | 478 kts | 309° |
| 2026-05-05 20:48 | 18.98668 | -95.12725 | 39864 ft | 480 kts | 308° |
| 2026-05-05 20:48 | 19.02833 | -95.18245 | 39858 ft | 479 kts | 308° |
| 2026-05-05 20:49 | 19.06979 | -95.23747 | 39869 ft | 479 kts | 308° |
| 2026-05-05 20:49 | 19.11138 | -95.29270 | 39861 ft | 480 kts | 308° |
| 2026-05-05 20:50 | 19.14591 | -95.33859 | 39854 ft | 479 kts | 308° |
| 2026-05-05 20:50 | 19.19447 | -95.40320 | 39849 ft | 480 kts | 308° |
| 2026-05-05 20:51 | 19.23594 | -95.45842 | 39833 ft | 480 kts | 308° |
| 2026-05-05 20:51 | 19.27749 | -95.51380 | 39841 ft | 480 kts | 308° |
| 2026-05-05 20:52 | 19.31905 | -95.56925 | 39842 ft | 480 kts | 308° |
| 2026-05-05 20:52 | 19.36049 | -95.62464 | 39832 ft | 480 kts | 308° |
| 2026-05-05 20:53 | 19.40198 | -95.68013 | 39845 ft | 480 kts | 308° |
| 2026-05-05 20:53 | 19.44350 | -95.73569 | 39838 ft | 481 kts | 308° |
| 2026-05-05 20:54 | 19.48501 | -95.79124 | 39834 ft | 481 kts | 308° |
| 2026-05-05 20:54 | 19.52621 | -95.84641 | 39846 ft | 481 kts | 308° |
| 2026-05-05 20:55 | 19.56776 | -95.90213 | 39834 ft | 481 kts | 308° |
| 2026-05-05 20:55 | 19.60928 | -95.95787 | 39839 ft | 481 kts | 308° |
| 2026-05-05 20:56 | 19.65078 | -96.01365 | 39842 ft | 481 kts | 307° |
| 2026-05-05 20:56 | 19.69229 | -96.06952 | 39831 ft | 482 kts | 307° |
| 2026-05-05 20:57 | 19.72676 | -96.11594 | 39839 ft | 482 kts | 307° |
| 2026-05-05 20:57 | 19.76824 | -96.17185 | 39858 ft | 481 kts | 307° |
| 2026-05-05 20:58 | 19.80969 | -96.22776 | 39874 ft | 482 kts | 307° |
| 2026-05-05 20:58 | 19.85108 | -96.28363 | 39877 ft | 482 kts | 307° |
| 2026-05-05 20:59 | 19.89253 | -96.33964 | 39873 ft | 482 kts | 307° |
| 2026-05-05 20:59 | 19.93386 | -96.39555 | 39886 ft | 481 kts | 307° |
| 2026-05-05 21:00 | 19.97527 | -96.45160 | 39882 ft | 482 kts | 307° |
| 2026-05-05 21:00 | 20.01657 | -96.50756 | 39882 ft | 481 kts | 307° |
| 2026-05-05 21:01 | 20.05782 | -96.56349 | 39891 ft | 480 kts | 307° |
| 2026-05-05 21:01 | 20.09901 | -96.61940 | 39877 ft | 480 kts | 307° |
| 2026-05-05 21:02 | 20.14017 | -96.67533 | 39852 ft | 480 kts | 307° |
| 2026-05-05 21:02 | 20.18161 | -96.73104 | 39839 ft | 480 kts | 309° |
| 2026-05-05 21:03 | 20.22593 | -96.78425 | 39841 ft | 480 kts | 311° |
| 2026-05-05 21:03 | 20.27098 | -96.83619 | 39842 ft | 480 kts | 312° |
| 2026-05-05 21:04 | 20.31645 | -96.88829 | 39829 ft | 480 kts | 312° |
| 2026-05-05 21:04 | 20.36183 | -96.94032 | 39833 ft | 479 kts | 311° |
| 2026-05-05 21:05 | 20.40724 | -96.99244 | 39830 ft | 479 kts | 312° |
| 2026-05-05 21:05 | 20.45258 | -97.04453 | 39817 ft | 479 kts | 311° |
| 2026-05-05 21:06 | 20.49791 | -97.09665 | 39822 ft | 479 kts | 311° |
| 2026-05-05 21:06 | 20.54324 | -97.14882 | 39815 ft | 479 kts | 311° |
| 2026-05-05 21:07 | 20.58851 | -97.20099 | 39804 ft | 479 kts | 311° |
| 2026-05-05 21:07 | 20.63381 | -97.25323 | 39808 ft | 479 kts | 311° |
| 2026-05-05 21:08 | 20.67899 | -97.30541 | 39795 ft | 479 kts | 311° |
| 2026-05-05 21:08 | 20.72424 | -97.35769 | 39803 ft | 478 kts | 311° |
| 2026-05-05 21:09 | 20.76909 | -97.40954 | 39804 ft | 479 kts | 311° |
| 2026-05-05 21:09 | 20.81429 | -97.46186 | 39794 ft | 478 kts | 311° |
| 2026-05-05 21:10 | 20.85939 | -97.51412 | 39809 ft | 478 kts | 311° |
| 2026-05-05 21:10 | 20.90447 | -97.56643 | 39817 ft | 478 kts | 311° |
| 2026-05-05 21:11 | 20.94939 | -97.61859 | 39810 ft | 477 kts | 311° |
| 2026-05-05 21:11 | 20.99438 | -97.67084 | 39823 ft | 477 kts | 311° |
| 2026-05-05 21:12 | 21.03903 | -97.72276 | 39829 ft | 476 kts | 311° |
| 2026-05-05 21:12 | 21.08390 | -97.77500 | 39823 ft | 476 kts | 311° |
| 2026-05-05 21:13 | 21.12866 | -97.82716 | 39836 ft | 475 kts | 311° |
| 2026-05-05 21:13 | 21.17338 | -97.87932 | 39834 ft | 475 kts | 311° |
| 2026-05-05 21:14 | 21.21805 | -97.93149 | 39826 ft | 474 kts | 311° |
| 2026-05-05 21:14 | 21.26265 | -97.98361 | 39839 ft | 474 kts | 311° |
| 2026-05-05 21:15 | 21.30721 | -98.03574 | 39829 ft | 474 kts | 311° |
| 2026-05-05 21:15 | 21.35175 | -98.08788 | 39827 ft | 473 kts | 311° |
| 2026-05-05 21:16 | 21.39620 | -98.14000 | 39836 ft | 473 kts | 311° |
| 2026-05-05 21:16 | 21.44063 | -98.19213 | 39822 ft | 473 kts | 311° |
| 2026-05-05 21:17 | 21.48509 | -98.24433 | 39825 ft | 473 kts | 310° |
| 2026-05-05 21:17 | 21.52947 | -98.29650 | 39827 ft | 473 kts | 310° |
| 2026-05-05 21:18 | 21.57389 | -98.34879 | 39806 ft | 473 kts | 310° |
| 2026-05-05 21:18 | 21.61822 | -98.40100 | 39794 ft | 473 kts | 310° |
| 2026-05-05 21:19 | 21.66220 | -98.45284 | 39813 ft | 473 kts | 310° |
| 2026-05-05 21:19 | 21.70648 | -98.50509 | 39808 ft | 473 kts | 310° |
| 2026-05-05 21:20 | 21.75084 | -98.55749 | 39800 ft | 473 kts | 310° |
| 2026-05-05 21:20 | 21.79508 | -98.60980 | 39812 ft | 473 kts | 310° |
| 2026-05-05 21:21 | 21.83939 | -98.66225 | 39802 ft | 473 kts | 310° |
| 2026-05-05 21:21 | 21.88368 | -98.71472 | 39806 ft | 474 kts | 310° |
| 2026-05-05 21:22 | 21.92795 | -98.76725 | 39817 ft | 474 kts | 310° |
| 2026-05-05 21:22 | 21.97224 | -98.81982 | 39806 ft | 473 kts | 310° |
| 2026-05-05 21:23 | 22.01644 | -98.87235 | 39818 ft | 472 kts | 310° |
| 2026-05-05 21:23 | 22.06016 | -98.92434 | 39818 ft | 471 kts | 310° |
| 2026-05-05 21:24 | 22.10413 | -98.97671 | 39818 ft | 470 kts | 310° |
| 2026-05-05 21:24 | 22.14802 | -99.02903 | 39857 ft | 471 kts | 310° |
| 2026-05-05 21:25 | 22.19197 | -99.08147 | 39891 ft | 471 kts | 310° |
| 2026-05-05 21:25 | 22.23583 | -99.13384 | 39912 ft | 470 kts | 310° |
| 2026-05-05 21:26 | 22.27969 | -99.18629 | 39929 ft | 470 kts | 310° |
| 2026-05-05 21:26 | 22.32363 | -99.23888 | 39905 ft | 471 kts | 310° |
| 2026-05-05 21:27 | 22.36745 | -99.29137 | 39880 ft | 470 kts | 309° |
| 2026-05-05 21:27 | 22.41129 | -99.34394 | 39881 ft | 471 kts | 310° |
| 2026-05-05 21:28 | 22.45506 | -99.39647 | 39896 ft | 471 kts | 309° |
| 2026-05-05 21:28 | 22.49892 | -99.44919 | 39898 ft | 471 kts | 309° |
| 2026-05-05 21:29 | 22.54242 | -99.50150 | 39900 ft | 471 kts | 309° |
| 2026-05-05 21:29 | 22.58627 | -99.55432 | 39913 ft | 471 kts | 309° |
| 2026-05-05 21:30 | 22.63003 | -99.60708 | 39912 ft | 471 kts | 309° |
| 2026-05-05 21:30 | 22.67373 | -99.65985 | 39917 ft | 470 kts | 309° |
| 2026-05-05 21:31 | 22.71735 | -99.71256 | 39930 ft | 470 kts | 309° |
| 2026-05-05 21:31 | 22.76102 | -99.76539 | 39925 ft | 470 kts | 309° |
| 2026-05-05 21:32 | 22.80461 | -99.81816 | 39934 ft | 469 kts | 309° |
| 2026-05-05 21:32 | 22.84818 | -99.87092 | 39945 ft | 469 kts | 309° |
| 2026-05-05 21:33 | 22.89170 | -99.92372 | 39933 ft | 469 kts | 309° |
| 2026-05-05 21:33 | 22.93512 | -99.97648 | 39919 ft | 469 kts | 309° |
| 2026-05-05 21:34 | 22.97858 | -100.02933 | 39932 ft | 469 kts | 309° |
| 2026-05-05 21:34 | 23.02176 | -100.08188 | 39938 ft | 469 kts | 309° |
| 2026-05-05 21:35 | 23.06517 | -100.13476 | 39930 ft | 468 kts | 309° |
| 2026-05-05 21:35 | 23.10845 | -100.18753 | 39945 ft | 468 kts | 308° |
| 2026-05-05 21:36 | 23.15175 | -100.24041 | 39947 ft | 468 kts | 308° |
| 2026-05-05 21:36 | 23.19497 | -100.29323 | 39940 ft | 467 kts | 308° |
| 2026-05-05 21:37 | 23.23815 | -100.34606 | 39956 ft | 467 kts | 308° |
| 2026-05-05 21:37 | 23.28130 | -100.39890 | 39961 ft | 467 kts | 308° |
| 2026-05-05 21:38 | 23.32435 | -100.45167 | 39991 ft | 467 kts | 308° |
| 2026-05-05 21:38 | 23.36718 | -100.50423 | 40008 ft | 466 kts | 308° |
| 2026-05-05 21:39 | 23.41013 | -100.55700 | 40014 ft | 466 kts | 308° |
| 2026-05-05 21:39 | 23.45306 | -100.60981 | 40002 ft | 466 kts | 308° |
| 2026-05-05 21:40 | 23.49600 | -100.66269 | 40015 ft | 466 kts | 308° |
| 2026-05-05 21:40 | 23.53889 | -100.71556 | 40013 ft | 466 kts | 308° |
| 2026-05-05 21:41 | 23.58181 | -100.76853 | 40006 ft | 466 kts | 308° |
| 2026-05-05 21:41 | 23.62471 | -100.82152 | 40020 ft | 465 kts | 308° |
| 2026-05-05 21:42 | 23.66752 | -100.87445 | 40011 ft | 465 kts | 308° |
| 2026-05-05 21:42 | 23.71027 | -100.92737 | 40012 ft | 465 kts | 308° |
| 2026-05-05 21:43 | 23.75306 | -100.98040 | 40016 ft | 466 kts | 308° |
| 2026-05-05 21:43 | 23.79579 | -101.03339 | 40027 ft | 465 kts | 308° |
| 2026-05-05 21:44 | 23.83136 | -101.07756 | 40055 ft | 464 kts | 308° |
| 2026-05-05 21:44 | 23.87395 | -101.13050 | 40091 ft | 464 kts | 308° |
| 2026-05-05 21:45 | 23.91658 | -101.18356 | 40112 ft | 464 kts | 308° |
| 2026-05-05 21:45 | 23.95914 | -101.23658 | 40119 ft | 463 kts | 308° |
| 2026-05-05 21:46 | 24.00163 | -101.28957 | 40104 ft | 463 kts | 307° |
| 2026-05-05 21:46 | 24.04387 | -101.34229 | 40104 ft | 459 kts | 307° |
| 2026-05-05 21:47 | 24.08601 | -101.39500 | 40111 ft | 460 kts | 307° |
| 2026-05-05 21:47 | 24.12818 | -101.44778 | 40097 ft | 460 kts | 307° |
| 2026-05-05 21:48 | 24.16923 | -101.50095 | 40097 ft | 458 kts | 304° |
| 2026-05-05 21:48 | 24.20792 | -101.55644 | 40098 ft | 458 kts | 303° |
| 2026-05-05 21:49 | 24.24624 | -101.61219 | 40085 ft | 458 kts | 303° |
| 2026-05-05 21:49 | 24.28472 | -101.66800 | 40093 ft | 458 kts | 303° |
| 2026-05-05 21:50 | 24.32328 | -101.72373 | 40088 ft | 459 kts | 303° |
| 2026-05-05 21:50 | 24.36179 | -101.77948 | 40076 ft | 459 kts | 303° |
| 2026-05-05 21:51 | 24.40022 | -101.83524 | 40086 ft | 458 kts | 303° |
| 2026-05-05 21:51 | 24.43862 | -101.89102 | 40076 ft | 458 kts | 303° |
| 2026-05-05 21:52 | 24.49619 | -101.97479 | 40073 ft | 458 kts | 303° |
| 2026-05-05 21:53 | 24.53456 | -102.03073 | 40073 ft | 458 kts | 303° |
| 2026-05-05 21:53 | 24.57275 | -102.08646 | 40058 ft | 457 kts | 303° |
| 2026-05-05 21:54 | 24.61090 | -102.14220 | 40066 ft | 457 kts | 303° |
| 2026-05-05 21:54 | 24.64884 | -102.19767 | 40056 ft | 456 kts | 303° |
| 2026-05-05 21:55 | 24.68698 | -102.25350 | 40047 ft | 456 kts | 302° |
| 2026-05-05 21:55 | 24.72496 | -102.30912 | 40050 ft | 455 kts | 303° |
| 2026-05-05 21:56 | 24.76292 | -102.36482 | 40039 ft | 455 kts | 302° |
| 2026-05-05 21:56 | 24.80087 | -102.42058 | 40032 ft | 455 kts | 302° |
| 2026-05-05 21:57 | 24.83874 | -102.47628 | 40034 ft | 454 kts | 302° |
| 2026-05-05 21:57 | 24.87655 | -102.53195 | 40021 ft | 453 kts | 302° |
| 2026-05-05 21:58 | 24.91408 | -102.58726 | 40014 ft | 453 kts | 302° |
| 2026-05-05 21:58 | 24.95172 | -102.64281 | 40015 ft | 452 kts | 302° |
| 2026-05-05 21:59 | 24.98931 | -102.69836 | 39998 ft | 452 kts | 302° |
| 2026-05-05 21:59 | 25.02692 | -102.75399 | 40010 ft | 452 kts | 302° |
| 2026-05-05 22:00 | 25.06444 | -102.80955 | 40005 ft | 452 kts | 302° |
| 2026-05-05 22:00 | 25.10197 | -102.86519 | 39990 ft | 452 kts | 302° |
| 2026-05-05 22:01 | 25.13941 | -102.92078 | 39984 ft | 452 kts | 302° |
| 2026-05-05 22:01 | 25.17688 | -102.97644 | 39981 ft | 451 kts | 302° |
| 2026-05-05 22:02 | 25.21424 | -103.03201 | 39968 ft | 450 kts | 302° |
| 2026-05-05 22:02 | 25.25152 | -103.08755 | 39966 ft | 450 kts | 302° |
| 2026-05-05 22:03 | 25.28879 | -103.14315 | 39960 ft | 450 kts | 301° |
| 2026-05-05 22:03 | 25.32601 | -103.19874 | 39948 ft | 450 kts | 301° |
| 2026-05-05 22:04 | 25.36319 | -103.25430 | 39954 ft | 449 kts | 301° |
| 2026-05-05 22:04 | 25.40004 | -103.30943 | 39945 ft | 449 kts | 301° |
| 2026-05-05 22:05 | 25.43714 | -103.36503 | 39938 ft | 449 kts | 301° |
| 2026-05-05 22:05 | 25.47415 | -103.42056 | 39948 ft | 448 kts | 301° |
| 2026-05-05 22:06 | 25.51112 | -103.47608 | 39936 ft | 447 kts | 301° |
| 2026-05-05 22:06 | 25.54795 | -103.53146 | 39940 ft | 447 kts | 301° |
| 2026-05-05 22:07 | 25.58485 | -103.58702 | 39948 ft | 446 kts | 301° |
| 2026-05-05 22:07 | 25.62161 | -103.64241 | 39936 ft | 446 kts | 301° |
| 2026-05-05 22:08 | 25.65824 | -103.69769 | 39948 ft | 445 kts | 301° |
| 2026-05-05 22:08 | 25.69465 | -103.75270 | 39951 ft | 445 kts | 301° |
| 2026-05-05 22:09 | 25.73126 | -103.80809 | 39945 ft | 444 kts | 300° |
| 2026-05-05 22:09 | 25.76776 | -103.86335 | 39959 ft | 444 kts | 300° |
| 2026-05-05 22:10 | 25.80422 | -103.91866 | 39959 ft | 444 kts | 300° |
| 2026-05-05 22:10 | 25.84064 | -103.97391 | 39956 ft | 443 kts | 300° |
| 2026-05-05 22:11 | 25.87699 | -104.02913 | 39971 ft | 443 kts | 300° |
| 2026-05-05 22:11 | 25.91340 | -104.08454 | 39969 ft | 443 kts | 300° |
| 2026-05-05 22:12 | 25.94971 | -104.13984 | 39969 ft | 443 kts | 300° |
| 2026-05-05 22:12 | 25.98599 | -104.19518 | 39983 ft | 443 kts | 300° |
| 2026-05-05 22:13 | 26.02206 | -104.25025 | 39978 ft | 443 kts | 300° |
| 2026-05-05 22:13 | 26.05820 | -104.30555 | 39980 ft | 442 kts | 300° |
| 2026-05-05 22:14 | 26.09432 | -104.36088 | 39993 ft | 442 kts | 300° |
| 2026-05-05 22:14 | 26.13051 | -104.41632 | 39984 ft | 442 kts | 300° |
| 2026-05-05 22:15 | 26.16661 | -104.47171 | 39992 ft | 442 kts | 300° |
| 2026-05-05 22:15 | 26.20270 | -104.52714 | 40000 ft | 441 kts | 300° |
| 2026-05-05 22:16 | 26.23873 | -104.58255 | 39968 ft | 441 kts | 300° |
| 2026-05-05 22:16 | 26.27463 | -104.63783 | 39942 ft | 440 kts | 299° |
| 2026-05-05 22:17 | 26.31059 | -104.69328 | 39930 ft | 441 kts | 299° |
| 2026-05-05 22:17 | 26.34649 | -104.74871 | 39939 ft | 440 kts | 299° |
| 2026-05-05 22:18 | 26.38230 | -104.80406 | 39938 ft | 440 kts | 299° |
| 2026-05-05 22:18 | 26.41784 | -104.85904 | 39912 ft | 439 kts | 299° |
| 2026-05-05 22:19 | 26.45349 | -104.91427 | 39899 ft | 439 kts | 299° |
| 2026-05-05 22:19 | 26.48913 | -104.96956 | 39908 ft | 439 kts | 299° |
| 2026-05-05 22:20 | 26.52473 | -105.02485 | 39909 ft | 438 kts | 299° |
| 2026-05-05 22:20 | 26.56024 | -105.08006 | 39900 ft | 438 kts | 299° |
| 2026-05-05 22:21 | 26.59572 | -105.13529 | 39914 ft | 437 kts | 298° |
| 2026-05-05 22:21 | 26.63120 | -105.19061 | 39906 ft | 438 kts | 298° |
| 2026-05-05 22:22 | 26.66663 | -105.24591 | 39908 ft | 437 kts | 298° |
| 2026-05-05 22:22 | 26.70204 | -105.30127 | 39918 ft | 437 kts | 298° |
| 2026-05-05 22:23 | 26.73724 | -105.35634 | 39906 ft | 436 kts | 298° |
| 2026-05-05 22:23 | 26.77248 | -105.41150 | 39913 ft | 436 kts | 298° |
| 2026-05-05 22:24 | 26.80784 | -105.46697 | 39925 ft | 437 kts | 298° |
| 2026-05-05 22:24 | 26.84310 | -105.52236 | 39929 ft | 437 kts | 298° |
| 2026-05-05 22:25 | 26.87833 | -105.57775 | 39921 ft | 436 kts | 298° |
| 2026-05-05 22:25 | 26.91351 | -105.63314 | 39933 ft | 437 kts | 297° |
| 2026-05-05 22:26 | 26.94868 | -105.68857 | 39928 ft | 436 kts | 297° |
| 2026-05-05 22:26 | 26.98383 | -105.74403 | 39925 ft | 435 kts | 297° |
| 2026-05-05 22:27 | 27.01881 | -105.79930 | 39938 ft | 435 kts | 297° |
| 2026-05-05 22:27 | 27.05380 | -105.85465 | 39927 ft | 434 kts | 297° |
| 2026-05-05 22:28 | 27.08858 | -105.90973 | 39933 ft | 435 kts | 297° |
| 2026-05-05 22:28 | 27.12350 | -105.96511 | 39939 ft | 434 kts | 297° |
| 2026-05-05 22:29 | 27.15842 | -106.02056 | 39929 ft | 435 kts | 296° |
| 2026-05-05 22:29 | 27.19336 | -106.07610 | 39961 ft | 434 kts | 296° |
| 2026-05-05 22:30 | 27.22820 | -106.13158 | 40003 ft | 435 kts | 296° |
| 2026-05-05 22:30 | 27.26304 | -106.18712 | 40042 ft | 434 kts | 296° |
| 2026-05-05 22:31 | 27.29789 | -106.24275 | 40073 ft | 435 kts | 296° |
| 2026-05-05 22:31 | 27.33267 | -106.29830 | 40092 ft | 433 kts | 296° |
| 2026-05-05 22:32 | 27.36141 | -106.34426 | 40103 ft | 433 kts | 296° |
| 2026-05-05 22:32 | 27.39601 | -106.39970 | 40114 ft | 433 kts | 296° |
| 2026-05-05 22:33 | 27.43617 | -106.46410 | 40114 ft | 432 kts | 296° |
| 2026-05-05 22:33 | 27.46505 | -106.51051 | 40125 ft | 432 kts | 296° |
| 2026-05-05 22:34 | 27.49956 | -106.56600 | 40136 ft | 432 kts | 296° |
| 2026-05-05 22:34 | 27.53404 | -106.62152 | 40139 ft | 432 kts | 296° |
| 2026-05-05 22:35 | 27.56845 | -106.67698 | 40151 ft | 432 kts | 296° |
| 2026-05-05 22:35 | 27.60269 | -106.73222 | 40162 ft | 433 kts | 296° |
| 2026-05-05 22:36 | 27.63723 | -106.78801 | 40170 ft | 433 kts | 296° |
| 2026-05-05 22:36 | 27.67167 | -106.84371 | 40180 ft | 433 kts | 296° |
| 2026-05-05 22:37 | 27.70616 | -106.89958 | 40193 ft | 433 kts | 296° |
| 2026-05-05 22:37 | 27.74052 | -106.95530 | 40201 ft | 433 kts | 295° |
| 2026-05-05 22:38 | 27.77492 | -107.01118 | 40214 ft | 432 kts | 295° |
| 2026-05-05 22:38 | 27.80925 | -107.06704 | 40225 ft | 433 kts | 295° |
| 2026-05-05 22:39 | 27.84364 | -107.12307 | 40232 ft | 434 kts | 295° |
| 2026-05-05 22:39 | 27.87773 | -107.17862 | 40234 ft | 433 kts | 295° |
| 2026-05-05 22:40 | 27.91203 | -107.23462 | 40248 ft | 433 kts | 295° |
| 2026-05-05 22:40 | 27.94626 | -107.29057 | 40247 ft | 432 kts | 295° |
| 2026-05-05 22:41 | 27.98045 | -107.34653 | 40250 ft | 432 kts | 295° |
| 2026-05-05 22:41 | 28.01464 | -107.40256 | 40262 ft | 432 kts | 294° |
| 2026-05-05 22:42 | 28.04870 | -107.45841 | 40248 ft | 431 kts | 294° |
| 2026-05-05 22:42 | 28.08263 | -107.51415 | 40254 ft | 430 kts | 294° |
| 2026-05-05 22:43 | 28.11655 | -107.56999 | 40257 ft | 430 kts | 294° |
| 2026-05-05 22:43 | 28.15041 | -107.62577 | 40243 ft | 430 kts | 294° |
| 2026-05-05 22:44 | 28.18426 | -107.68162 | 40248 ft | 430 kts | 294° |
| 2026-05-05 22:44 | 28.21792 | -107.73725 | 40234 ft | 430 kts | 294° |
| 2026-05-05 22:45 | 28.25175 | -107.79322 | 40222 ft | 430 kts | 294° |
| 2026-05-05 22:45 | 28.28555 | -107.84923 | 40221 ft | 430 kts | 294° |
| 2026-05-05 22:46 | 28.31932 | -107.90526 | 40211 ft | 430 kts | 294° |
| 2026-05-05 22:46 | 28.35307 | -107.96131 | 40198 ft | 430 kts | 294° |
| 2026-05-05 22:47 | 28.38678 | -108.01737 | 40194 ft | 430 kts | 294° |
| 2026-05-05 22:47 | 28.42051 | -108.07361 | 40185 ft | 431 kts | 294° |
| 2026-05-05 22:48 | 28.45423 | -108.12986 | 40172 ft | 431 kts | 294° |
| 2026-05-05 22:48 | 28.48789 | -108.18604 | 40166 ft | 430 kts | 294° |
| 2026-05-05 22:49 | 28.52133 | -108.24196 | 40159 ft | 431 kts | 294° |
| 2026-05-05 22:49 | 28.55501 | -108.29831 | 40145 ft | 430 kts | 294° |
| 2026-05-05 22:50 | 28.58867 | -108.35473 | 40140 ft | 430 kts | 293° |
| 2026-05-05 22:50 | 28.62226 | -108.41116 | 40132 ft | 431 kts | 293° |
| 2026-05-05 22:51 | 28.65588 | -108.46765 | 40119 ft | 430 kts | 293° |
| 2026-05-05 22:51 | 28.68933 | -108.52404 | 40116 ft | 430 kts | 293° |
| 2026-05-05 22:52 | 28.72283 | -108.58074 | 40126 ft | 432 kts | 293° |
| 2026-05-05 22:52 | 28.75628 | -108.63738 | 40117 ft | 431 kts | 292° |
| 2026-05-05 22:53 | 28.78970 | -108.69403 | 40102 ft | 430 kts | 292° |
| 2026-05-05 22:53 | 28.82307 | -108.75070 | 40088 ft | 430 kts | 292° |
| 2026-05-05 22:54 | 28.85622 | -108.80710 | 40087 ft | 431 kts | 292° |
| 2026-05-05 22:54 | 28.88955 | -108.86385 | 40076 ft | 430 kts | 292° |
| 2026-05-05 22:55 | 28.92284 | -108.92061 | 40068 ft | 430 kts | 292° |
| 2026-05-05 22:55 | 28.95607 | -108.97734 | 40067 ft | 430 kts | 292° |
| 2026-05-05 22:56 | 28.98927 | -109.03410 | 40052 ft | 430 kts | 292° |
| 2026-05-05 22:56 | 29.02248 | -109.09099 | 40054 ft | 431 kts | 292° |
| 2026-05-05 22:57 | 29.05566 | -109.14788 | 40045 ft | 430 kts | 291° |
| 2026-05-05 22:57 | 29.08878 | -109.20472 | 40036 ft | 429 kts | 291° |
| 2026-05-05 22:58 | 29.12187 | -109.26159 | 40048 ft | 429 kts | 291° |
| 2026-05-05 22:58 | 29.15492 | -109.31849 | 40045 ft | 429 kts | 291° |
| 2026-05-05 22:59 | 29.18794 | -109.37542 | 40028 ft | 429 kts | 291° |
| 2026-05-05 22:59 | 29.22075 | -109.43208 | 40028 ft | 429 kts | 291° |
| 2026-05-05 23:00 | 29.27017 | -109.51751 | 40014 ft | 428 kts | 291° |
| 2026-05-05 23:00 | 29.30303 | -109.57442 | 40016 ft | 428 kts | 291° |
| 2026-05-05 23:01 | 29.33584 | -109.63135 | 40015 ft | 428 kts | 291° |
| 2026-05-05 23:01 | 29.36871 | -109.68846 | 40004 ft | 429 kts | 290° |
| 2026-05-05 23:02 | 29.40160 | -109.74567 | 40010 ft | 429 kts | 290° |
| 2026-05-05 23:02 | 29.43442 | -109.80281 | 40001 ft | 428 kts | 290° |
| 2026-05-05 23:03 | 29.46696 | -109.85957 | 39991 ft | 428 kts | 290° |
| 2026-05-05 23:03 | 29.49966 | -109.91669 | 39970 ft | 427 kts | 290° |
| 2026-05-05 23:04 | 29.53229 | -109.97374 | 39959 ft | 427 kts | 290° |
| 2026-05-05 23:04 | 29.56485 | -110.03076 | 39972 ft | 427 kts | 290° |
| 2026-05-05 23:05 | 29.59741 | -110.08785 | 39961 ft | 427 kts | 289° |
| 2026-05-05 23:05 | 29.62997 | -110.14513 | 39965 ft | 428 kts | 289° |
| 2026-05-05 23:06 | 29.66250 | -110.20229 | 39969 ft | 426 kts | 290° |
| 2026-05-05 23:06 | 29.69504 | -110.25963 | 39961 ft | 428 kts | 289° |
| 2026-05-05 23:07 | 29.72755 | -110.31698 | 39973 ft | 426 kts | 290° |
| 2026-05-05 23:07 | 29.75995 | -110.37417 | 39960 ft | 427 kts | 289° |
| 2026-05-05 23:08 | 29.79234 | -110.43150 | 39975 ft | 428 kts | 290° |
| 2026-05-05 23:08 | 29.82457 | -110.48859 | 39971 ft | 428 kts | 289° |
| 2026-05-05 23:09 | 29.85698 | -110.54611 | 39965 ft | 428 kts | 289° |
| 2026-05-05 23:09 | 29.88936 | -110.60361 | 39976 ft | 428 kts | 289° |
| 2026-05-05 23:10 | 29.92168 | -110.66103 | 39969 ft | 426 kts | 290° |
| 2026-05-05 23:10 | 29.95389 | -110.71845 | 39971 ft | 427 kts | 290° |
| 2026-05-05 23:11 | 29.98616 | -110.77606 | 39982 ft | 427 kts | 290° |
| 2026-05-05 23:11 | 30.01835 | -110.83353 | 39971 ft | 426 kts | 289° |
| 2026-05-05 23:12 | 30.05051 | -110.89101 | 39973 ft | 426 kts | 289° |
| 2026-05-05 23:12 | 30.08265 | -110.94859 | 39964 ft | 426 kts | 289° |
| 2026-05-05 23:13 | 30.11474 | -111.00605 | 39962 ft | 427 kts | 289° |
| 2026-05-05 23:13 | 30.14703 | -111.06370 | 39971 ft | 427 kts | 290° |
| 2026-05-05 23:14 | 30.17911 | -111.12095 | 39960 ft | 427 kts | 290° |
| 2026-05-05 23:14 | 30.21134 | -111.17852 | 39967 ft | 427 kts | 289° |
| 2026-05-05 23:15 | 30.24354 | -111.23613 | 39971 ft | 425 kts | 290° |
| 2026-05-05 23:15 | 30.27557 | -111.29355 | 39964 ft | 425 kts | 289° |
| 2026-05-05 23:16 | 30.30763 | -111.35111 | 39979 ft | 426 kts | 290° |
| 2026-05-05 23:16 | 30.33976 | -111.40885 | 39983 ft | 426 kts | 290° |
| 2026-05-05 23:17 | 30.37179 | -111.46648 | 39971 ft | 426 kts | 290° |
| 2026-05-05 23:17 | 30.40384 | -111.52423 | 39983 ft | 425 kts | 290° |
| 2026-05-05 23:18 | 30.43583 | -111.58199 | 39974 ft | 426 kts | 290° |
| 2026-05-05 23:18 | 30.46775 | -111.63967 | 39959 ft | 425 kts | 289° |
| 2026-05-05 23:19 | 30.49967 | -111.69745 | 39968 ft | 425 kts | 289° |
| 2026-05-05 23:19 | 30.53136 | -111.75489 | 39968 ft | 426 kts | 289° |
| 2026-05-05 23:20 | 30.56326 | -111.81281 | 39954 ft | 425 kts | 289° |
| 2026-05-05 23:20 | 30.59507 | -111.87067 | 39972 ft | 425 kts | 289° |
| 2026-05-05 23:21 | 30.62150 | -111.91878 | 39965 ft | 425 kts | 289° |
| 2026-05-05 23:21 | 30.65333 | -111.97680 | 39959 ft | 425 kts | 289° |
| 2026-05-05 23:22 | 30.68511 | -112.03482 | 39971 ft | 426 kts | 289° |
| 2026-05-05 23:22 | 30.71695 | -112.09299 | 39960 ft | 426 kts | 289° |
| 2026-05-05 23:23 | 30.74859 | -112.15087 | 39958 ft | 424 kts | 289° |
| 2026-05-05 23:23 | 30.78018 | -112.20883 | 39967 ft | 425 kts | 289° |
| 2026-05-05 23:24 | 30.81180 | -112.26689 | 39948 ft | 424 kts | 289° |
| 2026-05-05 23:24 | 30.84335 | -112.32491 | 39946 ft | 424 kts | 289° |
| 2026-05-05 23:25 | 30.87484 | -112.38293 | 39956 ft | 424 kts | 289° |
| 2026-05-05 23:25 | 30.90632 | -112.44099 | 39942 ft | 424 kts | 289° |
| 2026-05-05 23:26 | 30.93761 | -112.49878 | 39947 ft | 424 kts | 289° |
| 2026-05-05 23:26 | 30.96909 | -112.55702 | 39951 ft | 424 kts | 289° |
| 2026-05-05 23:27 | 31.00048 | -112.61518 | 39939 ft | 424 kts | 289° |
| 2026-05-05 23:27 | 31.03183 | -112.67337 | 39948 ft | 424 kts | 289° |
| 2026-05-05 23:28 | 31.06322 | -112.73173 | 39946 ft | 425 kts | 289° |
| 2026-05-05 23:28 | 31.09454 | -112.79001 | 39931 ft | 424 kts | 289° |
| 2026-05-05 23:29 | 31.12582 | -112.84829 | 39940 ft | 424 kts | 289° |
| 2026-05-05 23:29 | 31.15707 | -112.90669 | 39945 ft | 425 kts | 289° |
| 2026-05-05 23:30 | 31.18839 | -112.96521 | 39931 ft | 424 kts | 289° |
| 2026-05-05 23:30 | 31.21946 | -113.02337 | 39943 ft | 424 kts | 289° |
| 2026-05-05 23:31 | 31.25070 | -113.08195 | 39940 ft | 425 kts | 289° |
| 2026-05-05 23:31 | 31.28196 | -113.14060 | 39933 ft | 425 kts | 289° |
| 2026-05-05 23:32 | 31.31316 | -113.19931 | 39945 ft | 426 kts | 289° |
| 2026-05-05 23:32 | 31.34439 | -113.25822 | 39942 ft | 425 kts | 289° |
| 2026-05-05 23:33 | 31.37622 | -113.31659 | 39932 ft | 426 kts | 291° |
| 2026-05-05 23:33 | 31.40869 | -113.37468 | 39946 ft | 427 kts | 291° |
| 2026-05-05 23:34 | 31.44137 | -113.43301 | 39939 ft | 428 kts | 291° |
| 2026-05-05 23:34 | 31.47408 | -113.49135 | 39937 ft | 429 kts | 291° |
| 2026-05-05 23:35 | 31.50686 | -113.54988 | 39947 ft | 429 kts | 291° |
| 2026-05-05 23:35 | 31.53961 | -113.60842 | 39934 ft | 430 kts | 291° |
| 2026-05-05 23:36 | 31.57211 | -113.66660 | 39942 ft | 430 kts | 291° |
| 2026-05-05 23:36 | 31.60498 | -113.72555 | 39944 ft | 431 kts | 291° |
| 2026-05-05 23:37 | 31.63767 | -113.78422 | 39931 ft | 429 kts | 291° |
| 2026-05-05 23:37 | 31.67030 | -113.84292 | 39944 ft | 429 kts | 291° |
| 2026-05-05 23:38 | 31.70297 | -113.90179 | 39939 ft | 430 kts | 291° |
| 2026-05-05 23:38 | 31.73556 | -113.96058 | 39932 ft | 430 kts | 291° |
| 2026-05-05 23:39 | 31.76818 | -114.01951 | 39944 ft | 430 kts | 291° |
| 2026-05-05 23:39 | 31.80078 | -114.07855 | 39933 ft | 431 kts | 291° |
| 2026-05-05 23:40 | 31.83338 | -114.13767 | 39935 ft | 430 kts | 291° |
| 2026-05-05 23:40 | 31.86597 | -114.19683 | 39941 ft | 431 kts | 291° |
| 2026-05-05 23:41 | 31.89845 | -114.25590 | 39926 ft | 431 kts | 291° |
| 2026-05-05 23:41 | 31.93098 | -114.31509 | 39931 ft | 430 kts | 291° |
| 2026-05-05 23:42 | 31.96329 | -114.37399 | 39935 ft | 430 kts | 291° |
| 2026-05-05 23:42 | 31.99566 | -114.43311 | 39921 ft | 430 kts | 291° |
| 2026-05-05 23:43 | 32.02824 | -114.49277 | 39929 ft | 435 kts | 292° |
| 2026-05-05 23:43 | 32.06096 | -114.55269 | 39926 ft | 434 kts | 292° |
| 2026-05-05 23:44 | 32.09358 | -114.61257 | 39924 ft | 435 kts | 292° |
| 2026-05-05 23:44 | 32.12629 | -114.67269 | 39937 ft | 436 kts | 292° |
| 2026-05-05 23:45 | 32.15909 | -114.73306 | 39924 ft | 437 kts | 292° |
| 2026-05-05 23:45 | 32.19184 | -114.79348 | 39931 ft | 438 kts | 293° |
| 2026-05-05 23:46 | 32.22469 | -114.85413 | 39934 ft | 438 kts | 293° |
| 2026-05-05 23:46 | 32.25756 | -114.91493 | 39924 ft | 439 kts | 293° |
| 2026-05-05 23:47 | 32.29040 | -114.97579 | 39936 ft | 441 kts | 293° |
| 2026-05-05 23:47 | 32.32330 | -115.03681 | 39929 ft | 439 kts | 294° |
| 2026-05-05 23:48 | 32.35617 | -115.09788 | 39927 ft | 441 kts | 294° |
| 2026-05-05 23:48 | 32.38886 | -115.15873 | 39938 ft | 442 kts | 294° |
| 2026-05-05 23:49 | 32.42179 | -115.22008 | 39925 ft | 441 kts | 294° |
| 2026-05-05 23:49 | 32.45467 | -115.28147 | 39932 ft | 442 kts | 294° |
| 2026-05-05 23:50 | 32.48756 | -115.34300 | 39935 ft | 443 kts | 294° |
| 2026-05-05 23:50 | 32.52050 | -115.40466 | 39921 ft | 442 kts | 294° |
| 2026-05-05 23:51 | 32.55333 | -115.46622 | 39932 ft | 442 kts | 294° |
| 2026-05-05 23:51 | 32.58615 | -115.52787 | 39927 ft | 442 kts | 294° |
| 2026-05-05 23:52 | 32.61871 | -115.58914 | 39916 ft | 442 kts | 294° |
| 2026-05-05 23:52 | 32.65149 | -115.65099 | 39934 ft | 443 kts | 294° |
| 2026-05-05 23:53 | 32.68425 | -115.71296 | 39952 ft | 443 kts | 294° |
| 2026-05-05 23:53 | 32.71696 | -115.77493 | 39965 ft | 444 kts | 294° |
| 2026-05-05 23:54 | 32.74976 | -115.83718 | 39893 ft | 444 kts | 294° |
| 2026-05-05 23:54 | 32.76618 | -115.86840 | 39421 ft | 445 kts | 294° |
| 2026-05-05 23:54 | 32.78252 | -115.89941 | 38998 ft | 439 kts | 294° |
| 2026-05-05 23:55 | 32.79839 | -115.92987 | 38668 ft | 429 kts | 293° |
| 2026-05-05 23:55 | 32.81376 | -115.95995 | 38343 ft | 423 kts | 292° |
| 2026-05-05 23:55 | 32.82893 | -115.98999 | 37928 ft | 424 kts | 292° |
| 2026-05-05 23:55 | 32.84411 | -116.02028 | 37450 ft | 429 kts | 293° |
| 2026-05-05 23:56 | 32.85942 | -116.05090 | 36931 ft | 433 kts | 293° |
| 2026-05-05 23:56 | 32.87489 | -116.08180 | 36366 ft | 435 kts | 293° |
| 2026-05-05 23:56 | 32.89035 | -116.11267 | 35750 ft | 435 kts | 292° |
| 2026-05-05 23:56 | 32.90583 | -116.14357 | 35132 ft | 433 kts | 292° |
| 2026-05-05 23:57 | 32.92117 | -116.17422 | 34527 ft | 431 kts | 292° |
| 2026-05-05 23:57 | 32.93650 | -116.20489 | 33930 ft | 430 kts | 292° |
| 2026-05-05 23:57 | 32.95174 | -116.23548 | 33345 ft | 430 kts | 292° |
| 2026-05-05 23:57 | 32.96680 | -116.26576 | 32779 ft | 433 kts | 292° |
| 2026-05-05 23:58 | 32.98224 | -116.29686 | 32197 ft | 438 kts | 292° |
| 2026-05-05 23:58 | 32.99781 | -116.32826 | 31588 ft | 441 kts | 293° |
| 2026-05-05 23:58 | 33.01343 | -116.35976 | 30989 ft | 443 kts | 294° |
| 2026-05-05 23:58 | 33.02916 | -116.39126 | 30383 ft | 440 kts | 294° |
| 2026-05-05 23:59 | 33.04417 | -116.42279 | 29805 ft | 432 kts | 291° |
| 2026-05-05 23:59 | 33.05713 | -116.45459 | 29233 ft | 425 kts | 289° |
| 2026-05-05 23:59 | 33.06937 | -116.48652 | 28627 ft | 420 kts | 289° |
| 2026-05-05 23:59 | 33.08131 | -116.51823 | 28043 ft | 417 kts | 289° |
| 2026-05-06 00:00 | 33.09309 | -116.54980 | 27491 ft | 415 kts | 289° |
| 2026-05-06 00:00 | 33.10477 | -116.58112 | 26967 ft | 412 kts | 290° |
| 2026-05-06 00:00 | 33.11639 | -116.61230 | 26436 ft | 410 kts | 290° |
| 2026-05-06 00:00 | 33.12790 | -116.64342 | 25868 ft | 407 kts | 289° |
| 2026-05-06 00:01 | 33.13597 | -116.67540 | 25282 ft | 400 kts | 280° |
| 2026-05-06 00:01 | 33.14121 | -116.70786 | 24743 ft | 397 kts | 278° |
| 2026-05-06 00:01 | 33.14583 | -116.74019 | 24177 ft | 395 kts | 278° |
| 2026-05-06 00:01 | 33.15033 | -116.77205 | 23623 ft | 393 kts | 278° |
| 2026-05-06 00:02 | 33.15491 | -116.80415 | 23064 ft | 391 kts | 278° |
| 2026-05-06 00:02 | 33.15950 | -116.83597 | 22511 ft | 389 kts | 279° |
| 2026-05-06 00:02 | 33.16409 | -116.86762 | 21959 ft | 386 kts | 279° |
| 2026-05-06 00:02 | 33.16867 | -116.89914 | 21408 ft | 384 kts | 279° |
| 2026-05-06 00:03 | 33.17324 | -116.93050 | 20864 ft | 382 kts | 279° |
| 2026-05-06 00:03 | 33.17777 | -116.96158 | 20320 ft | 380 kts | 279° |
| 2026-05-06 00:03 | 33.18226 | -116.99262 | 19777 ft | 378 kts | 279° |
| 2026-05-06 00:03 | 33.18670 | -117.02337 | 19240 ft | 375 kts | 279° |
| 2026-05-06 00:04 | 33.19112 | -117.05398 | 18705 ft | 373 kts | 279° |
| 2026-05-06 00:04 | 33.19550 | -117.08439 | 18175 ft | 371 kts | 279° |
| 2026-05-06 00:04 | 33.19988 | -117.11480 | 17643 ft | 369 kts | 279° |
| 2026-05-06 00:04 | 33.20423 | -117.14495 | 17115 ft | 366 kts | 279° |
| 2026-05-06 00:05 | 33.21278 | -117.20458 | 16072 ft | 362 kts | 279° |
| 2026-05-06 00:05 | 33.21697 | -117.23400 | 15556 ft | 359 kts | 279° |
| 2026-05-06 00:05 | 33.22117 | -117.26341 | 15042 ft | 357 kts | 279° |
| 2026-05-06 00:06 | 33.22532 | -117.29248 | 14532 ft | 352 kts | 279° |
| 2026-05-06 00:06 | 33.22828 | -117.31293 | 14140 ft | 349 kts | 280° |
| 2026-05-06 00:06 | 33.23237 | -117.33976 | 13675 ft | 344 kts | 280° |
| 2026-05-06 00:06 | 33.23529 | -117.35855 | 13469 ft | 337 kts | 280° |
| 2026-05-06 00:07 | 33.24103 | -117.39542 | 13236 ft | 344 kts | 280° |
| 2026-05-06 00:07 | 33.24396 | -117.41420 | 13163 ft | 349 kts | 280° |
| 2026-05-06 00:07 | 33.24841 | -117.44281 | 13076 ft | 350 kts | 280° |
| 2026-05-06 00:07 | 33.25284 | -117.47131 | 13005 ft | 349 kts | 280° |
| 2026-05-06 00:08 | 33.25727 | -117.49989 | 12933 ft | 351 kts | 280° |
| 2026-05-06 00:08 | 33.26283 | -117.52824 | 12834 ft | 351 kts | 289° |
| 2026-05-06 00:08 | 33.27409 | -117.55398 | 12785 ft | 350 kts | 300° |
| 2026-05-06 00:08 | 33.28721 | -117.57854 | 12711 ft | 351 kts | 302° |
| 2026-05-06 00:09 | 33.30060 | -117.60296 | 12633 ft | 351 kts | 302° |
| 2026-05-06 00:09 | 33.31393 | -117.62736 | 12547 ft | 350 kts | 302° |
| 2026-05-06 00:09 | 33.32716 | -117.65180 | 12414 ft | 351 kts | 302° |
| 2026-05-06 00:09 | 33.34062 | -117.67609 | 12238 ft | 350 kts | 305° |
| 2026-05-06 00:10 | 33.35789 | -117.69603 | 12049 ft | 340 kts | 321° |
| 2026-05-06 00:10 | 33.37701 | -117.71223 | 11866 ft | 334 kts | 324° |
| 2026-05-06 00:10 | 33.39403 | -117.72609 | 11671 ft | 325 kts | 324° |
| 2026-05-06 00:10 | 33.41242 | -117.74113 | 11458 ft | 315 kts | 324° |
| 2026-05-06 00:11 | 33.43012 | -117.75579 | 11251 ft | 306 kts | 324° |
| 2026-05-06 00:11 | 33.44735 | -117.77017 | 11047 ft | 297 kts | 323° |
| 2026-05-06 00:11 | 33.46401 | -117.78415 | 10847 ft | 290 kts | 323° |
| 2026-05-06 00:11 | 33.48033 | -117.79790 | 10652 ft | 283 kts | 323° |
| 2026-05-06 00:12 | 33.49623 | -117.81130 | 10459 ft | 276 kts | 323° |
| 2026-05-06 00:12 | 33.51182 | -117.82445 | 10272 ft | 271 kts | 323° |
| 2026-05-06 00:12 | 33.52708 | -117.83734 | 10081 ft | 267 kts | 323° |
| 2026-05-06 00:12 | 33.54225 | -117.85018 | 9884 ft | 267 kts | 323° |
| 2026-05-06 00:13 | 33.55738 | -117.86298 | 9701 ft | 266 kts | 323° |
| 2026-05-06 00:13 | 33.57147 | -117.87490 | 9534 ft | 268 kts | 323° |
| 2026-05-06 00:13 | 33.58119 | -117.88311 | 9420 ft | 268 kts | 323° |
| 2026-05-06 00:13 | 33.59653 | -117.89609 | 9220 ft | 265 kts | 323° |
| 2026-05-06 00:14 | 33.61150 | -117.90877 | 9029 ft | 261 kts | 323° |
| 2026-05-06 00:14 | 33.62617 | -117.92120 | 8845 ft | 256 kts | 323° |
| 2026-05-06 00:14 | 33.64061 | -117.93345 | 8665 ft | 252 kts | 323° |
| 2026-05-06 00:14 | 33.65482 | -117.94550 | 8489 ft | 249 kts | 323° |
| 2026-05-06 00:15 | 33.66890 | -117.95745 | 8314 ft | 246 kts | 323° |
| 2026-05-06 00:15 | 33.67721 | -117.96449 | 8210 ft | 244 kts | 323° |
| 2026-05-06 00:15 | 33.69098 | -117.97619 | 8036 ft | 242 kts | 323° |
| 2026-05-06 00:15 | 33.70455 | -117.98771 | 7863 ft | 240 kts | 323° |
| 2026-05-06 00:16 | 33.71817 | -117.99930 | 7688 ft | 239 kts | 323° |
| 2026-05-06 00:16 | 33.73063 | -118.00988 | 7531 ft | 238 kts | 323° |
| 2026-05-06 00:16 | 33.74411 | -118.02135 | 7359 ft | 237 kts | 323° |
| 2026-05-06 00:16 | 33.75773 | -118.03293 | 7184 ft | 236 kts | 323° |
| 2026-05-06 00:17 | 33.77111 | -118.04430 | 7023 ft | 235 kts | 324° |
| 2026-05-06 00:17 | 33.78317 | -118.05218 | 6896 ft | 234 kts | 333° |
| 2026-05-06 00:17 | 33.79801 | -118.06028 | 6712 ft | 235 kts | 335° |
| 2026-05-06 00:17 | 33.81306 | -118.06809 | 6476 ft | 237 kts | 336° |
| 2026-05-06 00:18 | 33.82847 | -118.07584 | 6189 ft | 242 kts | 336° |
| 2026-05-06 00:18 | 33.84418 | -118.08361 | 5893 ft | 247 kts | 336° |
| 2026-05-06 00:18 | 33.86023 | -118.09149 | 5587 ft | 251 kts | 336° |
| 2026-05-06 00:18 | 33.87649 | -118.09940 | 5340 ft | 251 kts | 336° |
| 2026-05-06 00:19 | 33.89262 | -118.10724 | 5193 ft | 248 kts | 336° |
| 2026-05-06 00:19 | 33.90852 | -118.11487 | 5121 ft | 243 kts | 336° |
| 2026-05-06 00:19 | 33.92286 | -118.12172 | 5059 ft | 239 kts | 336° |
| 2026-05-06 00:19 | 33.93789 | -118.12888 | 4999 ft | 223 kts | 336° |
| 2026-05-06 00:20 | 33.95170 | -118.13707 | 4558 ft | 218 kts | 323° |
| 2026-05-06 00:20 | 33.95853 | -118.14680 | 4170 ft | 216 kts | 300° |
| 2026-05-06 00:20 | 33.96178 | -118.16342 | 3731 ft | 208 kts | 269° |
| 2026-05-06 00:20 | 33.95940 | -118.18055 | 3481 ft | 198 kts | 257° |
| 2026-05-06 00:21 | 33.95695 | -118.19640 | 3183 ft | 193 kts | 259° |
| 2026-05-06 00:21 | 33.95494 | -118.21188 | 2917 ft | 175 kts | 260° |
| 2026-05-06 00:21 | 33.95336 | -118.22545 | 2693 ft | 158 kts | 261° |
| 2026-05-06 00:21 | 33.95200 | -118.23834 | 2475 ft | 153 kts | 262° |
| 2026-05-06 00:22 | 33.95083 | -118.25087 | 2277 ft | 149 kts | 262° |
| 2026-05-06 00:22 | 33.94968 | -118.26344 | 2082 ft | 149 kts | 262° |
| 2026-05-06 00:22 | 33.94845 | -118.27558 | 1889 ft | 148 kts | 262° |
| 2026-05-06 00:22 | 33.94707 | -118.28779 | 1691 ft | 147 kts | 261° |
| 2026-05-06 00:23 | 33.94587 | -118.29876 | 1518 ft | 148 kts | 263° |
| 2026-05-06 00:23 | 33.94465 | -118.31099 | 1328 ft | 148 kts | 264° |
| 2026-05-06 00:23 | 33.94347 | -118.32334 | 1133 ft | 147 kts | 265° |
| 2026-05-06 00:23 | 33.94225 | -118.33557 | 937 ft | 147 kts | 264° |
| 2026-05-06 00:24 | 33.94097 | -118.34777 | 740 ft | 146 kts | 264° |
| 2026-05-06 00:24 | 33.93969 | -118.35990 | 545 ft | 146 kts | 263° |
| 2026-05-06 00:24 | 33.93845 | -118.37200 | 346 ft | 146 kts | 262° |
| 2026-05-06 00:24 | 33.93730 | -118.38409 | 181 ft | 145 kts | 262° |
| 2026-05-06 00:25 | 33.93619 | -118.39523 | 144 ft | 121 kts | 259° |
| 2026-05-06 00:25 | 33.93526 | -118.40314 | 140 ft | 65 kts | 267° |
| 2026-05-06 00:25 | 33.93491 | -118.40681 | 140 ft | 36 kts | 262° |
| 2026-05-06 00:25 | 33.93483 | -118.40973 | 140 ft | 34 kts | 274° |
| 2026-05-06 00:26 | 33.93531 | -118.41186 | 140 ft | 10 kts | 290° |
| 2026-05-06 00:26 | 33.93541 | -118.41223 | 140 ft | 2 kts | 294° |
| 2026-05-06 00:26 | 33.93588 | -118.41273 | 140 ft | 16 kts | 345° |
| 2026-05-06 00:26 | 33.93731 | -118.41290 | 140 ft | 11 kts | 9° |
| 2026-05-06 00:27 | 33.93761 | -118.41211 | 140 ft | 14 kts | 72° |
| 2026-05-06 00:27 | 33.93851 | -118.41178 | 140 ft | 18 kts | 353° |
| 2026-05-06 00:27 | 33.93932 | -118.41158 | 140 ft | 9 kts | 78° |
| 2026-05-06 00:27 | 33.93939 | -118.41081 | 140 ft | 0 kts | 83° |